<?xml version='1.0' encoding='UTF-8'?><gpx version="1.1" creator="JPX - https://github.com/jenetics/jpx" xmlns="http://www.topografix.com/GPX/1/1"><trk><trkseg><trkpt lat="45.634281" lon="11.41527"><ele>153.0</ele><time>2026-04-28T15:46:33.539Z</time></trkpt><trkpt lat="45.6343411" lon="11.4153173"><ele>153.0</ele><time>2026-04-28T15:46:51.539Z</time></trkpt><trkpt lat="45.6342932" lon="11.4154058"><ele>153.0</ele><time>2026-04-28T15:46:55.538Z</time></trkpt><trkpt lat="45.6342231" lon="11.4154523"><ele>153.0</ele><time>2026-04-28T15:46:58.463Z</time></trkpt><trkpt lat="45.6341995" lon="11.415553"><ele>153.0</ele><time>2026-04-28T15:47:00.538Z</time></trkpt><trkpt lat="45.6342195" lon="11.4156758"><ele>153.0</ele><time>2026-04-28T15:47:02.538Z</time></trkpt><trkpt lat="45.6342405" lon="11.4158002"><ele>153.0</ele><time>2026-04-28T15:47:04.538Z</time></trkpt><trkpt lat="45.6342597" lon="11.4159194"><ele>153.0</ele><time>2026-04-28T15:47:06.538Z</time></trkpt><trkpt lat="45.6342843" lon="11.4160399"><ele>153.0</ele><time>2026-04-28T15:47:08.538Z</time></trkpt><trkpt lat="45.6341991" lon="11.4163467"><ele>153.0</ele><time>2026-04-28T15:47:09.538Z</time></trkpt><trkpt lat="45.6342252" lon="11.4165395"><ele>151.5</ele><time>2026-04-28T15:47:10.538Z</time></trkpt><trkpt lat="45.634228" lon="11.4166446"><ele>150.0</ele><time>2026-04-28T15:47:11.539Z</time></trkpt><trkpt lat="45.6342259" lon="11.4167691"><ele>148.5</ele><time>2026-04-28T15:47:12.538Z</time></trkpt><trkpt lat="45.6342296" lon="11.4168858"><ele>147.0</ele><time>2026-04-28T15:47:13.538Z</time></trkpt><trkpt lat="45.6342248" lon="11.4169815"><ele>145.5</ele><time>2026-04-28T15:47:14.538Z</time></trkpt><trkpt lat="45.6342821" lon="11.4171281"><ele>144.0</ele><time>2026-04-28T15:47:15.539Z</time></trkpt><trkpt lat="45.6343801" lon="11.417248"><ele>143.0</ele><time>2026-04-28T15:47:16.538Z</time></trkpt><trkpt lat="45.6344451" lon="11.417347"><ele>142.0</ele><time>2026-04-28T15:47:17.538Z</time></trkpt><trkpt lat="45.6345177" lon="11.4173946"><ele>141.0</ele><time>2026-04-28T15:47:18.538Z</time></trkpt><trkpt lat="45.6346433" lon="11.4174479"><ele>140.0</ele><time>2026-04-28T15:47:19.538Z</time></trkpt><trkpt lat="45.6347094" lon="11.4174279"><ele>139.0</ele><time>2026-04-28T15:47:20.539Z</time></trkpt><trkpt lat="45.6347828" lon="11.4174321"><ele>138.0</ele><time>2026-04-28T15:47:21.538Z</time></trkpt><trkpt lat="45.6348549" lon="11.4174695"><ele>138.0</ele><time>2026-04-28T15:47:22.539Z</time></trkpt><trkpt lat="45.6348442" lon="11.4176186"><ele>138.0</ele><time>2026-04-28T15:47:24.538Z</time></trkpt><trkpt lat="45.6347995" lon="11.4178385"><ele>138.0</ele><time>2026-04-28T15:47:26.538Z</time></trkpt><trkpt lat="45.6347808" lon="11.4179485"><ele>138.0</ele><time>2026-04-28T15:47:27.539Z</time></trkpt><trkpt lat="45.6347416" lon="11.4180488"><ele>138.0</ele><time>2026-04-28T15:47:28.537Z</time></trkpt><trkpt lat="45.6346627" lon="11.4182852"><ele>136.0</ele><time>2026-04-28T15:47:30.538Z</time></trkpt><trkpt lat="45.6346111" lon="11.4184194"><ele>134.0</ele><time>2026-04-28T15:47:31.538Z</time></trkpt><trkpt lat="45.634551" lon="11.4185233"><ele>132.0</ele><time>2026-04-28T15:47:32.539Z</time></trkpt><trkpt lat="45.6345002" lon="11.418654"><ele>130.0</ele><time>2026-04-28T15:47:33.538Z</time></trkpt><trkpt lat="45.6344568" lon="11.4187753"><ele>128.0</ele><time>2026-04-28T15:47:34.538Z</time></trkpt><trkpt lat="45.6343893" lon="11.418826"><ele>126.4</ele><time>2026-04-28T15:47:35.538Z</time></trkpt><trkpt lat="45.6343082" lon="11.4188793"><ele>124.80000000000001</ele><time>2026-04-28T15:47:36.538Z</time></trkpt><trkpt lat="45.634283" lon="11.4190586"><ele>123.2</ele><time>2026-04-28T15:47:38.539Z</time></trkpt><trkpt lat="45.6342535" lon="11.4191505"><ele>121.6</ele><time>2026-04-28T15:47:39.538Z</time></trkpt><trkpt lat="45.6342905" lon="11.4193364"><ele>120.0</ele><time>2026-04-28T15:47:40.538Z</time></trkpt><trkpt lat="45.6343016" lon="11.419511"><ele>120.0</ele><time>2026-04-28T15:47:41.539Z</time></trkpt><trkpt lat="45.6342954" lon="11.4196074"><ele>120.0</ele><time>2026-04-28T15:47:42.538Z</time></trkpt><trkpt lat="45.6343388" lon="11.4197348"><ele>120.0</ele><time>2026-04-28T15:47:43.538Z</time></trkpt><trkpt lat="45.6343879" lon="11.4199177"><ele>120.0</ele><time>2026-04-28T15:47:44.538Z</time></trkpt><trkpt lat="45.6344272" lon="11.4200898"><ele>120.0</ele><time>2026-04-28T15:47:45.538Z</time></trkpt><trkpt lat="45.634464" lon="11.4202675"><ele>117.75</ele><time>2026-04-28T15:47:46.538Z</time></trkpt><trkpt lat="45.6344875" lon="11.4204468"><ele>115.5</ele><time>2026-04-28T15:47:47.538Z</time></trkpt><trkpt lat="45.6345244" lon="11.4206108"><ele>113.25</ele><time>2026-04-28T15:47:48.538Z</time></trkpt><trkpt lat="45.6345513" lon="11.4207815"><ele>111.0</ele><time>2026-04-28T15:47:49.538Z</time></trkpt><trkpt lat="45.634579" lon="11.4209668"><ele>109.0</ele><time>2026-04-28T15:47:50.539Z</time></trkpt><trkpt lat="45.6346228" lon="11.4211564"><ele>107.0</ele><time>2026-04-28T15:47:51.538Z</time></trkpt><trkpt lat="45.634678" lon="11.4213402"><ele>105.0</ele><time>2026-04-28T15:47:52.538Z</time></trkpt><trkpt lat="45.6347056" lon="11.421536"><ele>103.0</ele><time>2026-04-28T15:47:53.539Z</time></trkpt><trkpt lat="45.6347387" lon="11.4217012"><ele>101.5</ele><time>2026-04-28T15:47:54.538Z</time></trkpt><trkpt lat="45.6347781" lon="11.4218768"><ele>100.0</ele><time>2026-04-28T15:47:55.539Z</time></trkpt><trkpt lat="45.6348117" lon="11.4220338"><ele>98.5</ele><time>2026-04-28T15:47:56.538Z</time></trkpt><trkpt lat="45.6348627" lon="11.4222117"><ele>97.0</ele><time>2026-04-28T15:47:57.538Z</time></trkpt><trkpt lat="45.6349096" lon="11.4223864"><ele>96.0</ele><time>2026-04-28T15:47:58.538Z</time></trkpt><trkpt lat="45.6349498" lon="11.4225592"><ele>95.0</ele><time>2026-04-28T15:47:59.539Z</time></trkpt><trkpt lat="45.6349841" lon="11.422706"><ele>94.0</ele><time>2026-04-28T15:48:00.538Z</time></trkpt><trkpt lat="45.6350098" lon="11.4228416"><ele>93.0</ele><time>2026-04-28T15:48:01.538Z</time></trkpt><trkpt lat="45.6350323" lon="11.4229366"><ele>92.0</ele><time>2026-04-28T15:48:02.539Z</time></trkpt><trkpt lat="45.6350491" lon="11.4230542"><ele>91.66666666666667</ele><time>2026-04-28T15:48:03.538Z</time></trkpt><trkpt lat="45.6350188" lon="11.4231447"><ele>91.33333333333334</ele><time>2026-04-28T15:48:08.538Z</time></trkpt><trkpt lat="45.6349599" lon="11.4231987"><ele>91.0</ele><time>2026-04-28T15:48:10.539Z</time></trkpt><trkpt lat="45.6348995" lon="11.4232589"><ele>90.66666666666667</ele><time>2026-04-28T15:48:12.539Z</time></trkpt><trkpt lat="45.6348097" lon="11.4232976"><ele>90.33333333333333</ele><time>2026-04-28T15:48:14.538Z</time></trkpt><trkpt lat="45.6347365" lon="11.4233286"><ele>90.0</ele><time>2026-04-28T15:48:16.538Z</time></trkpt><trkpt lat="45.6346557" lon="11.4234041"><ele>90.0</ele><time>2026-04-28T15:48:18.538Z</time></trkpt><trkpt lat="45.6345272" lon="11.423421"><ele>90.0</ele><time>2026-04-28T15:48:20.538Z</time></trkpt><trkpt lat="45.6344161" lon="11.4235117"><ele>90.0</ele><time>2026-04-28T15:48:22.538Z</time></trkpt><trkpt lat="45.6343411" lon="11.4236306"><ele>90.0</ele><time>2026-04-28T15:48:24.538Z</time></trkpt><trkpt lat="45.6342417" lon="11.4236758"><ele>90.0</ele><time>2026-04-28T15:48:26.538Z</time></trkpt><trkpt lat="45.634146" lon="11.4237155"><ele>90.0</ele><time>2026-04-28T15:48:28.539Z</time></trkpt><trkpt lat="45.6340573" lon="11.4237577"><ele>90.0</ele><time>2026-04-28T15:48:30.538Z</time></trkpt><trkpt lat="45.6339968" lon="11.4238112"><ele>90.0</ele><time>2026-04-28T15:48:31.538Z</time></trkpt><trkpt lat="45.6339009" lon="11.4238891"><ele>90.0</ele><time>2026-04-28T15:48:33.538Z</time></trkpt><trkpt lat="45.6338306" lon="11.4239125"><ele>90.0</ele><time>2026-04-28T15:48:34.538Z</time></trkpt><trkpt lat="45.63373" lon="11.4239605"><ele>90.0</ele><time>2026-04-28T15:48:36.538Z</time></trkpt><trkpt lat="45.6336481" lon="11.4240116"><ele>90.0</ele><time>2026-04-28T15:48:38.538Z</time></trkpt><trkpt lat="45.633563" lon="11.4240582"><ele>90.0</ele><time>2026-04-28T15:48:40.538Z</time></trkpt><trkpt lat="45.6334866" lon="11.4241248"><ele>90.0</ele><time>2026-04-28T15:48:42.538Z</time></trkpt><trkpt lat="45.6334343" lon="11.4241801"><ele>90.0</ele><time>2026-04-28T15:48:44.539Z</time></trkpt><trkpt lat="45.6333703" lon="11.4242351"><ele>90.0</ele><time>2026-04-28T15:48:46.539Z</time></trkpt><trkpt lat="45.6333007" lon="11.4243116"><ele>90.0</ele><time>2026-04-28T15:48:48.538Z</time></trkpt><trkpt lat="45.6332198" lon="11.4244029"><ele>90.0</ele><time>2026-04-28T15:48:50.538Z</time></trkpt><trkpt lat="45.6331736" lon="11.4245554"><ele>90.0</ele><time>2026-04-28T15:48:52.538Z</time></trkpt><trkpt lat="45.6331848" lon="11.4247332"><ele>90.0</ele><time>2026-04-28T15:48:54.538Z</time></trkpt><trkpt lat="45.6332115" lon="11.4248873"><ele>89.83333333333333</ele><time>2026-04-28T15:48:56.538Z</time></trkpt><trkpt lat="45.6332005" lon="11.4250081"><ele>89.66666666666667</ele><time>2026-04-28T15:48:58.538Z</time></trkpt><trkpt lat="45.6331299" lon="11.4250828"><ele>89.5</ele><time>2026-04-28T15:49:00.538Z</time></trkpt><trkpt lat="45.6330536" lon="11.4251207"><ele>89.33333333333334</ele><time>2026-04-28T15:49:02.538Z</time></trkpt><trkpt lat="45.632997" lon="11.4251826"><ele>89.16666666666667</ele><time>2026-04-28T15:49:04.538Z</time></trkpt><trkpt lat="45.6329607" lon="11.4252617"><ele>89.0</ele><time>2026-04-28T15:49:05.539Z</time></trkpt><trkpt lat="45.6329263" lon="11.4253497"><ele>89.0</ele><time>2026-04-28T15:49:06.538Z</time></trkpt><trkpt lat="45.6328979" lon="11.4254489"><ele>89.0</ele><time>2026-04-28T15:49:07.538Z</time></trkpt><trkpt lat="45.6328826" lon="11.4255648"><ele>89.0</ele><time>2026-04-28T15:49:08.538Z</time></trkpt><trkpt lat="45.6328761" lon="11.4256846"><ele>89.0</ele><time>2026-04-28T15:49:09.539Z</time></trkpt><trkpt lat="45.6329228" lon="11.4260049"><ele>88.5</ele><time>2026-04-28T15:49:10.538Z</time></trkpt><trkpt lat="45.6329174" lon="11.426191"><ele>88.0</ele><time>2026-04-28T15:49:12.538Z</time></trkpt><trkpt lat="45.6329143" lon="11.4262936"><ele>87.5</ele><time>2026-04-28T15:49:13.539Z</time></trkpt><trkpt lat="45.6329151" lon="11.4264774"><ele>87.0</ele><time>2026-04-28T15:49:14.538Z</time></trkpt><trkpt lat="45.6329211" lon="11.426721"><ele>86.66666666666667</ele><time>2026-04-28T15:49:15.538Z</time></trkpt><trkpt lat="45.6329331" lon="11.4268515"><ele>86.33333333333333</ele><time>2026-04-28T15:49:16.539Z</time></trkpt><trkpt lat="45.6329162" lon="11.4270243"><ele>86.0</ele><time>2026-04-28T15:49:18.538Z</time></trkpt><trkpt lat="45.6329212" lon="11.4271158"><ele>85.66666666666666</ele><time>2026-04-28T15:49:19.537Z</time></trkpt><trkpt lat="45.6329326" lon="11.4272271"><ele>85.33333333333333</ele><time>2026-04-28T15:49:20.538Z</time></trkpt><trkpt lat="45.6329331" lon="11.4273272"><ele>85.0</ele><time>2026-04-28T15:49:21.538Z</time></trkpt><trkpt lat="45.6329338" lon="11.42742"><ele>84.66666666666666</ele><time>2026-04-28T15:49:22.538Z</time></trkpt><trkpt lat="45.6329405" lon="11.4275383"><ele>84.33333333333333</ele><time>2026-04-28T15:49:23.537Z</time></trkpt><trkpt lat="45.6329463" lon="11.4276293"><ele>84.0</ele><time>2026-04-28T15:49:24.539Z</time></trkpt><trkpt lat="45.6329665" lon="11.4277349"><ele>83.66666666666667</ele><time>2026-04-28T15:49:25.538Z</time></trkpt><trkpt lat="45.6329722" lon="11.4278339"><ele>83.33333333333334</ele><time>2026-04-28T15:49:26.538Z</time></trkpt><trkpt lat="45.6329694" lon="11.428011"><ele>83.0</ele><time>2026-04-28T15:49:28.539Z</time></trkpt><trkpt lat="45.6329856" lon="11.4281042"><ele>83.0</ele><time>2026-04-28T15:49:29.538Z</time></trkpt><trkpt lat="45.6329999" lon="11.4282036"><ele>83.0</ele><time>2026-04-28T15:49:30.539Z</time></trkpt><trkpt lat="45.6330171" lon="11.4283127"><ele>83.0</ele><time>2026-04-28T15:49:31.538Z</time></trkpt><trkpt lat="45.6330382" lon="11.4284953"><ele>83.0</ele><time>2026-04-28T15:49:33.538Z</time></trkpt><trkpt lat="45.6330633" lon="11.4286687"><ele>83.0</ele><time>2026-04-28T15:49:35.539Z</time></trkpt><trkpt lat="45.6330599" lon="11.4288515"><ele>83.0</ele><time>2026-04-28T15:49:37.538Z</time></trkpt><trkpt lat="45.6330842" lon="11.4289423"><ele>83.0</ele><time>2026-04-28T15:49:38.538Z</time></trkpt><trkpt lat="45.6331052" lon="11.4290466"><ele>83.0</ele><time>2026-04-28T15:49:39.539Z</time></trkpt><trkpt lat="45.6331406" lon="11.4291956"><ele>83.0</ele><time>2026-04-28T15:49:41.538Z</time></trkpt><trkpt lat="45.6331722" lon="11.4293482"><ele>83.0</ele><time>2026-04-28T15:49:43.538Z</time></trkpt><trkpt lat="45.6331967" lon="11.429446"><ele>83.0</ele><time>2026-04-28T15:49:44.538Z</time></trkpt><trkpt lat="45.6332311" lon="11.4295531"><ele>83.0</ele><time>2026-04-28T15:49:45.538Z</time></trkpt><trkpt lat="45.6332585" lon="11.4297106"><ele>83.0</ele><time>2026-04-28T15:49:47.539Z</time></trkpt><trkpt lat="45.63329" lon="11.4298127"><ele>83.0</ele><time>2026-04-28T15:49:48.538Z</time></trkpt><trkpt lat="45.6333165" lon="11.4298949"><ele>83.0</ele><time>2026-04-28T15:49:49.538Z</time></trkpt><trkpt lat="45.6333524" lon="11.4299878"><ele>83.0</ele><time>2026-04-28T15:49:50.538Z</time></trkpt><trkpt lat="45.6333754" lon="11.4300742"><ele>83.0</ele><time>2026-04-28T15:49:51.538Z</time></trkpt><trkpt lat="45.6334305" lon="11.4302244"><ele>83.0</ele><time>2026-04-28T15:49:53.539Z</time></trkpt><trkpt lat="45.6334924" lon="11.4303484"><ele>83.0</ele><time>2026-04-28T15:49:55.539Z</time></trkpt><trkpt lat="45.6335576" lon="11.4305108"><ele>83.0</ele><time>2026-04-28T15:49:57.538Z</time></trkpt><trkpt lat="45.6335732" lon="11.43061"><ele>83.0</ele><time>2026-04-28T15:49:58.539Z</time></trkpt><trkpt lat="45.6336167" lon="11.4307777"><ele>83.0</ele><time>2026-04-28T15:50:00.538Z</time></trkpt><trkpt lat="45.6336618" lon="11.430941"><ele>83.0</ele><time>2026-04-28T15:50:02.539Z</time></trkpt><trkpt lat="45.6336811" lon="11.4310398"><ele>83.0</ele><time>2026-04-28T15:50:03.538Z</time></trkpt><trkpt lat="45.6337026" lon="11.4311289"><ele>83.0</ele><time>2026-04-28T15:50:04.538Z</time></trkpt><trkpt lat="45.6337385" lon="11.4312699"><ele>83.0</ele><time>2026-04-28T15:50:06.537Z</time></trkpt><trkpt lat="45.6337043" lon="11.43144"><ele>83.0</ele><time>2026-04-28T15:50:08.539Z</time></trkpt><trkpt lat="45.6337223" lon="11.4315368"><ele>83.0</ele><time>2026-04-28T15:50:09.538Z</time></trkpt><trkpt lat="45.6336962" lon="11.4316222"><ele>83.2</ele><time>2026-04-28T15:50:10.538Z</time></trkpt><trkpt lat="45.6336957" lon="11.4317827"><ele>83.4</ele><time>2026-04-28T15:50:12.538Z</time></trkpt><trkpt lat="45.6337742" lon="11.4318923"><ele>83.60000000000001</ele><time>2026-04-28T15:50:13.538Z</time></trkpt><trkpt lat="45.6338289" lon="11.4320064"><ele>83.80000000000001</ele><time>2026-04-28T15:50:14.538Z</time></trkpt><trkpt lat="45.6338798" lon="11.4320693"><ele>84.0</ele><time>2026-04-28T15:50:15.539Z</time></trkpt><trkpt lat="45.6339212" lon="11.4321496"><ele>84.2</ele><time>2026-04-28T15:50:16.539Z</time></trkpt><trkpt lat="45.6339425" lon="11.4323247"><ele>84.4</ele><time>2026-04-28T15:50:18.538Z</time></trkpt><trkpt lat="45.6339835" lon="11.4324216"><ele>84.6</ele><time>2026-04-28T15:50:19.539Z</time></trkpt><trkpt lat="45.6340145" lon="11.4325136"><ele>84.8</ele><time>2026-04-28T15:50:20.539Z</time></trkpt><trkpt lat="45.6340292" lon="11.4326049"><ele>85.0</ele><time>2026-04-28T15:50:21.538Z</time></trkpt><trkpt lat="45.6340499" lon="11.4327709"><ele>85.0</ele><time>2026-04-28T15:50:23.538Z</time></trkpt><trkpt lat="45.63408" lon="11.4328573"><ele>85.0</ele><time>2026-04-28T15:50:24.538Z</time></trkpt><trkpt lat="45.6340889" lon="11.4329745"><ele>85.0</ele><time>2026-04-28T15:50:25.538Z</time></trkpt><trkpt lat="45.6340463" lon="11.4331273"><ele>85.0</ele><time>2026-04-28T15:50:27.538Z</time></trkpt><trkpt lat="45.6339066" lon="11.4332102"><ele>85.0</ele><time>2026-04-28T15:50:29.538Z</time></trkpt><trkpt lat="45.6338316" lon="11.4332484"><ele>84.66666666666666</ele><time>2026-04-28T15:50:30.538Z</time></trkpt><trkpt lat="45.6337728" lon="11.4332832"><ele>84.33333333333333</ele><time>2026-04-28T15:50:31.538Z</time></trkpt><trkpt lat="45.6337129" lon="11.4333268"><ele>84.0</ele><time>2026-04-28T15:50:32.539Z</time></trkpt><trkpt lat="45.6336172" lon="11.4334283"><ele>83.66666666666667</ele><time>2026-04-28T15:50:34.538Z</time></trkpt><trkpt lat="45.6335627" lon="11.4334902"><ele>83.33333333333334</ele><time>2026-04-28T15:50:35.539Z</time></trkpt><trkpt lat="45.6334566" lon="11.4335567"><ele>83.0</ele><time>2026-04-28T15:50:37.539Z</time></trkpt><trkpt lat="45.6333922" lon="11.4336067"><ele>82.80000000000001</ele><time>2026-04-28T15:50:38.538Z</time></trkpt><trkpt lat="45.6333328" lon="11.4337438"><ele>82.6</ele><time>2026-04-28T15:50:40.538Z</time></trkpt><trkpt lat="45.6332645" lon="11.4338002"><ele>82.4</ele><time>2026-04-28T15:50:41.538Z</time></trkpt><trkpt lat="45.6331637" lon="11.4339101"><ele>82.19999999999999</ele><time>2026-04-28T15:50:43.538Z</time></trkpt><trkpt lat="45.6330887" lon="11.4339402"><ele>82.0</ele><time>2026-04-28T15:50:44.538Z</time></trkpt><trkpt lat="45.6330363" lon="11.4340078"><ele>82.0</ele><time>2026-04-28T15:50:45.538Z</time></trkpt><trkpt lat="45.6329835" lon="11.4340665"><ele>82.0</ele><time>2026-04-28T15:50:46.539Z</time></trkpt><trkpt lat="45.6329263" lon="11.434122"><ele>82.0</ele><time>2026-04-28T15:50:47.539Z</time></trkpt><trkpt lat="45.6328572" lon="11.4341741"><ele>82.0</ele><time>2026-04-28T15:50:48.538Z</time></trkpt><trkpt lat="45.6327835" lon="11.4341793"><ele>82.0</ele><time>2026-04-28T15:50:49.538Z</time></trkpt><trkpt lat="45.6327212" lon="11.4342691"><ele>82.0</ele><time>2026-04-28T15:50:50.538Z</time></trkpt><trkpt lat="45.6326053" lon="11.434374"><ele>82.0</ele><time>2026-04-28T15:50:52.538Z</time></trkpt><trkpt lat="45.632547" lon="11.43443"><ele>82.0</ele><time>2026-04-28T15:50:53.539Z</time></trkpt><trkpt lat="45.6324394" lon="11.4345246"><ele>82.0</ele><time>2026-04-28T15:50:55.538Z</time></trkpt><trkpt lat="45.6323762" lon="11.43456"><ele>82.0</ele><time>2026-04-28T15:50:56.538Z</time></trkpt><trkpt lat="45.6323218" lon="11.4346184"><ele>82.0</ele><time>2026-04-28T15:50:57.539Z</time></trkpt><trkpt lat="45.6322617" lon="11.4346638"><ele>82.0</ele><time>2026-04-28T15:50:58.537Z</time></trkpt><trkpt lat="45.632214" lon="11.4347238"><ele>82.0</ele><time>2026-04-28T15:50:59.539Z</time></trkpt><trkpt lat="45.6321491" lon="11.4347757"><ele>82.0</ele><time>2026-04-28T15:51:00.538Z</time></trkpt><trkpt lat="45.6320374" lon="11.4348652"><ele>82.0</ele><time>2026-04-28T15:51:02.538Z</time></trkpt><trkpt lat="45.6319794" lon="11.4349084"><ele>82.0</ele><time>2026-04-28T15:51:03.538Z</time></trkpt><trkpt lat="45.6319128" lon="11.4349541"><ele>82.0</ele><time>2026-04-28T15:51:04.538Z</time></trkpt><trkpt lat="45.6318306" lon="11.4350773"><ele>82.0</ele><time>2026-04-28T15:51:06.538Z</time></trkpt><trkpt lat="45.6317765" lon="11.4351334"><ele>82.0</ele><time>2026-04-28T15:51:07.539Z</time></trkpt><trkpt lat="45.631731" lon="11.4351965"><ele>82.0</ele><time>2026-04-28T15:51:08.538Z</time></trkpt><trkpt lat="45.6316268" lon="11.4352427"><ele>82.0</ele><time>2026-04-28T15:51:10.538Z</time></trkpt><trkpt lat="45.6315406" lon="11.4353128"><ele>82.0</ele><time>2026-04-28T15:51:14.539Z</time></trkpt><trkpt lat="45.6314462" lon="11.4353861"><ele>82.0</ele><time>2026-04-28T15:51:17.539Z</time></trkpt><trkpt lat="45.6314124" lon="11.4355257"><ele>81.5</ele><time>2026-04-28T15:51:19.538Z</time></trkpt><trkpt lat="45.6313973" lon="11.4356161"><ele>81.0</ele><time>2026-04-28T15:51:20.538Z</time></trkpt><trkpt lat="45.631378" lon="11.4358105"><ele>80.5</ele><time>2026-04-28T15:51:22.538Z</time></trkpt><trkpt lat="45.6313618" lon="11.4359982"><ele>80.0</ele><time>2026-04-28T15:51:24.538Z</time></trkpt><trkpt lat="45.6313565" lon="11.436175"><ele>80.0</ele><time>2026-04-28T15:51:26.539Z</time></trkpt><trkpt lat="45.6313563" lon="11.4363593"><ele>80.0</ele><time>2026-04-28T15:51:28.538Z</time></trkpt><trkpt lat="45.6313635" lon="11.4365312"><ele>80.0</ele><time>2026-04-28T15:51:30.539Z</time></trkpt><trkpt lat="45.6313685" lon="11.4366349"><ele>80.0</ele><time>2026-04-28T15:51:31.538Z</time></trkpt><trkpt lat="45.6313283" lon="11.4367834"><ele>80.0</ele><time>2026-04-28T15:51:33.539Z</time></trkpt><trkpt lat="45.6313117" lon="11.4369621"><ele>80.0</ele><time>2026-04-28T15:51:35.538Z</time></trkpt><trkpt lat="45.6312909" lon="11.4370545"><ele>80.0</ele><time>2026-04-28T15:51:36.538Z</time></trkpt><trkpt lat="45.6312376" lon="11.4372144"><ele>80.0</ele><time>2026-04-28T15:51:38.539Z</time></trkpt><trkpt lat="45.6312294" lon="11.4373259"><ele>80.0</ele><time>2026-04-28T15:51:39.538Z</time></trkpt><trkpt lat="45.6312254" lon="11.4374211"><ele>80.0</ele><time>2026-04-28T15:51:40.538Z</time></trkpt><trkpt lat="45.6311632" lon="11.4375537"><ele>80.0</ele><time>2026-04-28T15:51:42.539Z</time></trkpt><trkpt lat="45.6311548" lon="11.4376605"><ele>79.8</ele><time>2026-04-28T15:51:43.539Z</time></trkpt><trkpt lat="45.6311069" lon="11.4378449"><ele>79.6</ele><time>2026-04-28T15:51:45.538Z</time></trkpt><trkpt lat="45.6310717" lon="11.4379323"><ele>79.4</ele><time>2026-04-28T15:51:46.539Z</time></trkpt><trkpt lat="45.6309963" lon="11.4379445"><ele>79.2</ele><time>2026-04-28T15:51:47.538Z</time></trkpt><trkpt lat="45.6309657" lon="11.4380291"><ele>79.0</ele><time>2026-04-28T15:51:48.538Z</time></trkpt><trkpt lat="45.6309531" lon="11.4381765"><ele>79.0</ele><time>2026-04-28T15:51:49.539Z</time></trkpt><trkpt lat="45.6309286" lon="11.4382851"><ele>79.0</ele><time>2026-04-28T15:51:51.538Z</time></trkpt><trkpt lat="45.6309121" lon="11.4383751"><ele>79.0</ele><time>2026-04-28T15:51:52.538Z</time></trkpt><trkpt lat="45.6308924" lon="11.4384788"><ele>79.0</ele><time>2026-04-28T15:51:53.538Z</time></trkpt><trkpt lat="45.630787" lon="11.4384857"><ele>79.0</ele><time>2026-04-28T15:51:55.538Z</time></trkpt><trkpt lat="45.6307236" lon="11.4385379"><ele>79.0</ele><time>2026-04-28T15:51:56.538Z</time></trkpt><trkpt lat="45.6306645" lon="11.4385805"><ele>79.0</ele><time>2026-04-28T15:51:57.537Z</time></trkpt><trkpt lat="45.6305494" lon="11.4385933"><ele>79.0</ele><time>2026-04-28T15:51:59.538Z</time></trkpt><trkpt lat="45.6304814" lon="11.4386226"><ele>79.0</ele><time>2026-04-28T15:52:00.539Z</time></trkpt><trkpt lat="45.6304059" lon="11.4386546"><ele>79.0</ele><time>2026-04-28T15:52:01.539Z</time></trkpt><trkpt lat="45.6303048" lon="11.4387057"><ele>79.0</ele><time>2026-04-28T15:52:03.539Z</time></trkpt><trkpt lat="45.6301858" lon="11.4387472"><ele>79.0</ele><time>2026-04-28T15:52:05.539Z</time></trkpt><trkpt lat="45.6301024" lon="11.4387567"><ele>79.0</ele><time>2026-04-28T15:52:06.538Z</time></trkpt><trkpt lat="45.6300347" lon="11.4387982"><ele>79.0</ele><time>2026-04-28T15:52:08.539Z</time></trkpt><trkpt lat="45.6299265" lon="11.4388141"><ele>79.0</ele><time>2026-04-28T15:52:10.537Z</time></trkpt><trkpt lat="45.6298706" lon="11.438875"><ele>79.0</ele><time>2026-04-28T15:52:11.538Z</time></trkpt><trkpt lat="45.6298067" lon="11.4390417"><ele>79.0</ele><time>2026-04-28T15:52:13.538Z</time></trkpt><trkpt lat="45.6297238" lon="11.4390853"><ele>79.0</ele><time>2026-04-28T15:52:49.336Z</time></trkpt><trkpt lat="45.6296229" lon="11.439223"><ele>79.0</ele><time>2026-04-28T15:52:51.538Z</time></trkpt><trkpt lat="45.6295257" lon="11.4392622"><ele>79.0</ele><time>2026-04-28T15:52:53.538Z</time></trkpt><trkpt lat="45.6294578" lon="11.4392909"><ele>79.0</ele><time>2026-04-28T15:52:55.538Z</time></trkpt><trkpt lat="45.6293241" lon="11.4392996"><ele>79.0</ele><time>2026-04-28T15:52:58.539Z</time></trkpt><trkpt lat="45.629214" lon="11.4392961"><ele>79.0</ele><time>2026-04-28T15:53:01.538Z</time></trkpt><trkpt lat="45.6291128" lon="11.439278"><ele>79.0</ele><time>2026-04-28T15:53:02.538Z</time></trkpt><trkpt lat="45.6289706" lon="11.4393507"><ele>79.0</ele><time>2026-04-28T15:53:04.539Z</time></trkpt><trkpt lat="45.6289222" lon="11.4394202"><ele>79.0</ele><time>2026-04-28T15:53:05.538Z</time></trkpt><trkpt lat="45.6288658" lon="11.4394643"><ele>79.0</ele><time>2026-04-28T15:53:06.538Z</time></trkpt><trkpt lat="45.628864" lon="11.4396011"><ele>79.0</ele><time>2026-04-28T15:53:07.539Z</time></trkpt><trkpt lat="45.628824" lon="11.4397033"><ele>79.0</ele><time>2026-04-28T15:53:08.538Z</time></trkpt><trkpt lat="45.6288008" lon="11.4399282"><ele>79.0</ele><time>2026-04-28T15:53:10.538Z</time></trkpt><trkpt lat="45.6287901" lon="11.4400664"><ele>79.0</ele><time>2026-04-28T15:53:12.537Z</time></trkpt><trkpt lat="45.6287794" lon="11.4401561"><ele>78.83333333333333</ele><time>2026-04-28T15:53:13.538Z</time></trkpt><trkpt lat="45.6287094" lon="11.4401943"><ele>78.66666666666666</ele><time>2026-04-28T15:53:17.538Z</time></trkpt><trkpt lat="45.6286505" lon="11.4401452"><ele>78.5</ele><time>2026-04-28T15:53:19.538Z</time></trkpt><trkpt lat="45.6285742" lon="11.4400875"><ele>78.33333333333333</ele><time>2026-04-28T15:53:21.538Z</time></trkpt><trkpt lat="45.6285" lon="11.4399844"><ele>78.16666666666667</ele><time>2026-04-28T15:53:23.539Z</time></trkpt><trkpt lat="45.6284042" lon="11.439925"><ele>78.0</ele><time>2026-04-28T15:53:25.538Z</time></trkpt><trkpt lat="45.6283072" lon="11.4397983"><ele>78.16666666666667</ele><time>2026-04-28T15:53:27.539Z</time></trkpt><trkpt lat="45.6282" lon="11.4397139"><ele>78.33333333333333</ele><time>2026-04-28T15:53:29.539Z</time></trkpt><trkpt lat="45.6281374" lon="11.4396914"><ele>78.5</ele><time>2026-04-28T15:53:30.538Z</time></trkpt><trkpt lat="45.6280598" lon="11.4396291"><ele>78.66666666666666</ele><time>2026-04-28T15:53:32.538Z</time></trkpt><trkpt lat="45.6279751" lon="11.4395733"><ele>78.83333333333333</ele><time>2026-04-28T15:53:34.538Z</time></trkpt><trkpt lat="45.6279093" lon="11.4395273"><ele>79.0</ele><time>2026-04-28T15:53:36.538Z</time></trkpt><trkpt lat="45.6278249" lon="11.4395072"><ele>78.60000000000001</ele><time>2026-04-28T15:53:38.538Z</time></trkpt><trkpt lat="45.6277073" lon="11.4395051"><ele>78.2</ele><time>2026-04-28T15:53:40.538Z</time></trkpt><trkpt lat="45.6276407" lon="11.4395101"><ele>77.80000000000001</ele><time>2026-04-28T15:53:41.539Z</time></trkpt><trkpt lat="45.6275147" lon="11.4395465"><ele>77.4</ele><time>2026-04-28T15:53:43.539Z</time></trkpt><trkpt lat="45.6274392" lon="11.43957"><ele>77.0</ele><time>2026-04-28T15:53:44.539Z</time></trkpt><trkpt lat="45.6273022" lon="11.4395999"><ele>77.0</ele><time>2026-04-28T15:53:45.539Z</time></trkpt><trkpt lat="45.6271576" lon="11.4396186"><ele>77.0</ele><time>2026-04-28T15:53:46.539Z</time></trkpt><trkpt lat="45.6270615" lon="11.4396211"><ele>77.0</ele><time>2026-04-28T15:53:48.539Z</time></trkpt><trkpt lat="45.6269448" lon="11.4396024"><ele>77.0</ele><time>2026-04-28T15:53:50.539Z</time></trkpt><trkpt lat="45.6268681" lon="11.4395251"><ele>77.5</ele><time>2026-04-28T15:53:52.538Z</time></trkpt><trkpt lat="45.6268039" lon="11.4395029"><ele>78.0</ele><time>2026-04-28T15:53:54.538Z</time></trkpt><trkpt lat="45.6267201" lon="11.4394477"><ele>78.5</ele><time>2026-04-28T15:53:58.538Z</time></trkpt><trkpt lat="45.6266512" lon="11.4393498"><ele>79.0</ele><time>2026-04-28T15:54:01.538Z</time></trkpt><trkpt lat="45.6265996" lon="11.4392367"><ele>79.5</ele><time>2026-04-28T15:54:04.538Z</time></trkpt><trkpt lat="45.6265499" lon="11.4391653"><ele>80.0</ele><time>2026-04-28T15:54:06.538Z</time></trkpt><trkpt lat="45.6264851" lon="11.4390745"><ele>80.0</ele><time>2026-04-28T15:54:09.538Z</time></trkpt><trkpt lat="45.6264292" lon="11.4390054"><ele>80.0</ele><time>2026-04-28T15:54:11.537Z</time></trkpt><trkpt lat="45.6263741" lon="11.438952"><ele>80.0</ele><time>2026-04-28T15:54:13.538Z</time></trkpt><trkpt lat="45.6263059" lon="11.4388955"><ele>80.0</ele><time>2026-04-28T15:54:15.537Z</time></trkpt><trkpt lat="45.6261818" lon="11.4388441"><ele>80.0</ele><time>2026-04-28T15:54:17.537Z</time></trkpt><trkpt lat="45.6261037" lon="11.4387802"><ele>80.0</ele><time>2026-04-28T15:54:19.538Z</time></trkpt><trkpt lat="45.6260025" lon="11.4387091"><ele>79.5</ele><time>2026-04-28T15:54:21.537Z</time></trkpt><trkpt lat="45.6259199" lon="11.4386455"><ele>79.0</ele><time>2026-04-28T15:54:23.537Z</time></trkpt><trkpt lat="45.6258455" lon="11.4385903"><ele>78.5</ele><time>2026-04-28T15:54:25.537Z</time></trkpt><trkpt lat="45.6257767" lon="11.4385216"><ele>78.0</ele><time>2026-04-28T15:54:27.538Z</time></trkpt><trkpt lat="45.6257027" lon="11.4384638"><ele>77.5</ele><time>2026-04-28T15:54:29.537Z</time></trkpt><trkpt lat="45.6256242" lon="11.4384107"><ele>77.0</ele><time>2026-04-28T15:54:31.537Z</time></trkpt><trkpt lat="45.6254826" lon="11.4383938"><ele>77.0</ele><time>2026-04-28T15:54:33.537Z</time></trkpt><trkpt lat="45.6254049" lon="11.4383871"><ele>77.0</ele><time>2026-04-28T15:54:35.537Z</time></trkpt><trkpt lat="45.6253297" lon="11.4383996"><ele>77.0</ele><time>2026-04-28T15:54:36.537Z</time></trkpt><trkpt lat="45.6252274" lon="11.4383966"><ele>77.0</ele><time>2026-04-28T15:54:38.537Z</time></trkpt><trkpt lat="45.6251586" lon="11.4383898"><ele>77.0</ele><time>2026-04-28T15:54:40.537Z</time></trkpt><trkpt lat="45.6250796" lon="11.4384023"><ele>77.0</ele><time>2026-04-28T15:54:41.537Z</time></trkpt><trkpt lat="45.6249995" lon="11.4384227"><ele>77.66666666666667</ele><time>2026-04-28T15:54:43.537Z</time></trkpt><trkpt lat="45.6249132" lon="11.4384621"><ele>78.33333333333334</ele><time>2026-04-28T15:54:45.537Z</time></trkpt><trkpt lat="45.6248374" lon="11.4384831"><ele>79.0</ele><time>2026-04-28T15:54:47.537Z</time></trkpt><trkpt lat="45.6247619" lon="11.4384749"><ele>79.66666666666667</ele><time>2026-04-28T15:54:49.537Z</time></trkpt><trkpt lat="45.6246845" lon="11.4384481"><ele>80.33333333333333</ele><time>2026-04-28T15:54:51.538Z</time></trkpt><trkpt lat="45.6246" lon="11.4384072"><ele>81.0</ele><time>2026-04-28T15:54:54.538Z</time></trkpt><trkpt lat="45.6245369" lon="11.438358"><ele>82.0</ele><time>2026-04-28T15:54:56.537Z</time></trkpt><trkpt lat="45.6244795" lon="11.4382981"><ele>83.0</ele><time>2026-04-28T15:54:58.538Z</time></trkpt><trkpt lat="45.6244192" lon="11.4382262"><ele>84.0</ele><time>2026-04-28T15:55:00.538Z</time></trkpt><trkpt lat="45.6243552" lon="11.4381637"><ele>85.0</ele><time>2026-04-28T15:55:02.537Z</time></trkpt><trkpt lat="45.6243022" lon="11.4380946"><ele>86.0</ele><time>2026-04-28T15:55:04.538Z</time></trkpt><trkpt lat="45.6242457" lon="11.4380309"><ele>87.0</ele><time>2026-04-28T15:55:06.538Z</time></trkpt><trkpt lat="45.6241582" lon="11.4379716"><ele>86.5</ele><time>2026-04-28T15:55:08.538Z</time></trkpt><trkpt lat="45.624091" lon="11.4379295"><ele>86.0</ele><time>2026-04-28T15:55:10.537Z</time></trkpt><trkpt lat="45.6240168" lon="11.4378845"><ele>85.5</ele><time>2026-04-28T15:55:13.537Z</time></trkpt><trkpt lat="45.6239292" lon="11.4378271"><ele>85.0</ele><time>2026-04-28T15:55:16.538Z</time></trkpt><trkpt lat="45.6238641" lon="11.437781"><ele>84.5</ele><time>2026-04-28T15:55:18.537Z</time></trkpt><trkpt lat="45.6237856" lon="11.437738"><ele>84.0</ele><time>2026-04-28T15:55:20.537Z</time></trkpt><trkpt lat="45.6237186" lon="11.4377075"><ele>84.0</ele><time>2026-04-28T15:55:22.538Z</time></trkpt><trkpt lat="45.6236471" lon="11.4376791"><ele>84.0</ele><time>2026-04-28T15:55:28.537Z</time></trkpt><trkpt lat="45.6235797" lon="11.4376525"><ele>84.0</ele><time>2026-04-28T15:55:32.538Z</time></trkpt><trkpt lat="45.6234976" lon="11.4376381"><ele>84.0</ele><time>2026-04-28T15:55:36.537Z</time></trkpt><trkpt lat="45.623421" lon="11.4376448"><ele>84.0</ele><time>2026-04-28T15:55:40.538Z</time></trkpt><trkpt lat="45.6233541" lon="11.4376291"><ele>84.0</ele><time>2026-04-28T15:55:45.538Z</time></trkpt><trkpt lat="45.6232905" lon="11.4376127"><ele>84.0</ele><time>2026-04-28T15:55:49.538Z</time></trkpt><trkpt lat="45.6232083" lon="11.4375708"><ele>86.57142857142857</ele><time>2026-04-28T15:55:53.537Z</time></trkpt><trkpt lat="45.6231387" lon="11.4375172"><ele>89.14285714285714</ele><time>2026-04-28T15:55:56.537Z</time></trkpt><trkpt lat="45.623068" lon="11.4374664"><ele>91.71428571428572</ele><time>2026-04-28T15:56:00.537Z</time></trkpt><trkpt lat="45.6230101" lon="11.4374148"><ele>94.28571428571428</ele><time>2026-04-28T15:56:03.537Z</time></trkpt><trkpt lat="45.622959" lon="11.437359"><ele>96.85714285714286</ele><time>2026-04-28T15:56:08.537Z</time></trkpt><trkpt lat="45.6229048" lon="11.4372953"><ele>99.42857142857143</ele><time>2026-04-28T15:56:13.538Z</time></trkpt><trkpt lat="45.6228351" lon="11.4372576"><ele>102.0</ele><time>2026-04-28T15:56:19.538Z</time></trkpt><trkpt lat="45.6227717" lon="11.4372131"><ele>105.33333333333333</ele><time>2026-04-28T15:56:23.538Z</time></trkpt><trkpt lat="45.6227418" lon="11.4371141"><ele>108.66666666666666</ele><time>2026-04-28T15:56:29.537Z</time></trkpt><trkpt lat="45.6226997" lon="11.437018"><ele>112.0</ele><time>2026-04-28T15:56:34.537Z</time></trkpt><trkpt lat="45.6226805" lon="11.4369165"><ele>115.33333333333333</ele><time>2026-04-28T15:56:40.537Z</time></trkpt><trkpt lat="45.6226683" lon="11.4368128"><ele>118.66666666666666</ele><time>2026-04-28T15:56:44.538Z</time></trkpt><trkpt lat="45.6226467" lon="11.4367047"><ele>122.0</ele><time>2026-04-28T15:56:48.537Z</time></trkpt><trkpt lat="45.6226123" lon="11.4366183"><ele>121.99999999999999</ele><time>2026-04-28T15:56:53.537Z</time></trkpt><trkpt lat="45.6225572" lon="11.436559"><ele>122.0</ele><time>2026-04-28T15:56:59.537Z</time></trkpt><trkpt lat="45.6224865" lon="11.4365368"><ele>121.99999999999999</ele><time>2026-04-28T15:57:05.537Z</time></trkpt><trkpt lat="45.6224754" lon="11.4364392"><ele>121.99999999999999</ele><time>2026-04-28T15:57:10.537Z</time></trkpt><trkpt lat="45.6224317" lon="11.4363653"><ele>122.0</ele><time>2026-04-28T15:57:16.537Z</time></trkpt><trkpt lat="45.622434" lon="11.4362525"><ele>121.99999999999999</ele><time>2026-04-28T15:57:21.537Z</time></trkpt><trkpt lat="45.6224637" lon="11.4361723"><ele>121.99999999999999</ele><time>2026-04-28T15:57:26.537Z</time></trkpt><trkpt lat="45.6224557" lon="11.4360724"><ele>122.99999999999999</ele><time>2026-04-28T15:57:31.537Z</time></trkpt><trkpt lat="45.6224332" lon="11.4359725"><ele>124.0</ele><time>2026-04-28T15:57:35.538Z</time></trkpt><trkpt lat="45.6224029" lon="11.4358695"><ele>124.99999999999999</ele><time>2026-04-28T15:57:39.537Z</time></trkpt><trkpt lat="45.6223623" lon="11.4357942"><ele>125.99999999999999</ele><time>2026-04-28T15:57:42.537Z</time></trkpt><trkpt lat="45.6223441" lon="11.4356986"><ele>127.0</ele><time>2026-04-28T15:57:47.538Z</time></trkpt><trkpt lat="45.622299" lon="11.4356343"><ele>127.99999999999999</ele><time>2026-04-28T15:57:53.538Z</time></trkpt><trkpt lat="45.62229" lon="11.4355343"><ele>129.0</ele><time>2026-04-28T15:58:00.537Z</time></trkpt><trkpt lat="45.6222633" lon="11.4354389"><ele>129.99999999999997</ele><time>2026-04-28T15:58:05.537Z</time></trkpt><trkpt lat="45.6222614" lon="11.4353462"><ele>131.0</ele><time>2026-04-28T15:58:10.537Z</time></trkpt><trkpt lat="45.622257" lon="11.4352533"><ele>132.0</ele><time>2026-04-28T15:58:16.537Z</time></trkpt><trkpt lat="45.6222648" lon="11.4351611"><ele>133.0</ele><time>2026-04-28T15:58:21.537Z</time></trkpt><trkpt lat="45.6222938" lon="11.4350642"><ele>134.0</ele><time>2026-04-28T15:58:26.537Z</time></trkpt><trkpt lat="45.622322" lon="11.4349773"><ele>134.99999999999997</ele><time>2026-04-28T15:58:32.538Z</time></trkpt><trkpt lat="45.6223095" lon="11.4348854"><ele>136.0</ele><time>2026-04-28T15:58:39.537Z</time></trkpt><trkpt lat="45.6223117" lon="11.4347746"><ele>135.99999999999997</ele><time>2026-04-28T15:58:44.537Z</time></trkpt><trkpt lat="45.6223236" lon="11.4346709"><ele>136.0</ele><time>2026-04-28T15:58:50.537Z</time></trkpt><trkpt lat="45.6223495" lon="11.4345881"><ele>136.0</ele><time>2026-04-28T15:58:54.537Z</time></trkpt><trkpt lat="45.6223567" lon="11.4344841"><ele>136.0</ele><time>2026-04-28T15:59:00.537Z</time></trkpt><trkpt lat="45.6223797" lon="11.4343762"><ele>136.0</ele><time>2026-04-28T15:59:05.538Z</time></trkpt><trkpt lat="45.6224033" lon="11.4342772"><ele>135.99999999999997</ele><time>2026-04-28T15:59:10.536Z</time></trkpt><trkpt lat="45.6224051" lon="11.4341787"><ele>136.0</ele><time>2026-04-28T15:59:15.538Z</time></trkpt><trkpt lat="45.6223701" lon="11.4340858"><ele>136.7142857142857</ele><time>2026-04-28T15:59:20.538Z</time></trkpt><trkpt lat="45.6223723" lon="11.4339772"><ele>137.42857142857142</ele><time>2026-04-28T15:59:25.537Z</time></trkpt><trkpt lat="45.6223702" lon="11.4338681"><ele>138.14285714285714</ele><time>2026-04-28T15:59:31.537Z</time></trkpt><trkpt lat="45.6224101" lon="11.4337662"><ele>138.85714285714283</ele><time>2026-04-28T15:59:35.538Z</time></trkpt><trkpt lat="45.6224353" lon="11.4336716"><ele>139.57142857142856</ele><time>2026-04-28T15:59:39.538Z</time></trkpt><trkpt lat="45.6224565" lon="11.4335766"><ele>140.28571428571428</ele><time>2026-04-28T15:59:42.537Z</time></trkpt><trkpt lat="45.62248" lon="11.4334871"><ele>141.0</ele><time>2026-04-28T15:59:46.538Z</time></trkpt><trkpt lat="45.6225145" lon="11.4334077"><ele>141.57142857142858</ele><time>2026-04-28T15:59:52.537Z</time></trkpt><trkpt lat="45.6225649" lon="11.4333377"><ele>142.14285714285714</ele><time>2026-04-28T15:59:58.537Z</time></trkpt><trkpt lat="45.6225563" lon="11.4332344"><ele>142.71428571428572</ele><time>2026-04-28T16:00:03.537Z</time></trkpt><trkpt lat="45.6225922" lon="11.4331598"><ele>143.28571428571428</ele><time>2026-04-28T16:00:08.537Z</time></trkpt><trkpt lat="45.6226019" lon="11.4330493"><ele>143.85714285714286</ele><time>2026-04-28T16:00:13.537Z</time></trkpt><trkpt lat="45.6226442" lon="11.432954"><ele>144.42857142857144</ele><time>2026-04-28T16:00:17.538Z</time></trkpt><trkpt lat="45.6226908" lon="11.4328782"><ele>145.0</ele><time>2026-04-28T16:00:21.538Z</time></trkpt><trkpt lat="45.6227226" lon="11.4327956"><ele>145.83333333333334</ele><time>2026-04-28T16:00:25.537Z</time></trkpt><trkpt lat="45.6227279" lon="11.4326874"><ele>146.66666666666669</ele><time>2026-04-28T16:00:30.537Z</time></trkpt><trkpt lat="45.6227441" lon="11.4325793"><ele>147.5</ele><time>2026-04-28T16:00:34.537Z</time></trkpt><trkpt lat="45.6227366" lon="11.4324656"><ele>148.33333333333334</ele><time>2026-04-28T16:00:37.537Z</time></trkpt><trkpt lat="45.6227335" lon="11.4323628"><ele>149.16666666666666</ele><time>2026-04-28T16:00:42.537Z</time></trkpt><trkpt lat="45.6227241" lon="11.4322623"><ele>150.0</ele><time>2026-04-28T16:00:48.538Z</time></trkpt><trkpt lat="45.6227192" lon="11.4321518"><ele>150.7142857142857</ele><time>2026-04-28T16:00:53.537Z</time></trkpt><trkpt lat="45.6227103" lon="11.4320581"><ele>151.42857142857142</ele><time>2026-04-28T16:00:58.537Z</time></trkpt><trkpt lat="45.622711" lon="11.4319596"><ele>152.14285714285714</ele><time>2026-04-28T16:01:03.537Z</time></trkpt><trkpt lat="45.6226993" lon="11.4318515"><ele>152.85714285714283</ele><time>2026-04-28T16:01:09.537Z</time></trkpt><trkpt lat="45.6226655" lon="11.4317747"><ele>153.57142857142856</ele><time>2026-04-28T16:01:13.537Z</time></trkpt><trkpt lat="45.6226245" lon="11.4317031"><ele>154.28571428571428</ele><time>2026-04-28T16:01:17.538Z</time></trkpt><trkpt lat="45.6225656" lon="11.431647"><ele>155.0</ele><time>2026-04-28T16:01:23.537Z</time></trkpt><trkpt lat="45.6225123" lon="11.4315885"><ele>155.0</ele><time>2026-04-28T16:01:28.537Z</time></trkpt><trkpt lat="45.6224626" lon="11.4315309"><ele>155.0</ele><time>2026-04-28T16:01:33.537Z</time></trkpt><trkpt lat="45.6224225" lon="11.4314514"><ele>155.0</ele><time>2026-04-28T16:01:39.537Z</time></trkpt><trkpt lat="45.622368" lon="11.4313985"><ele>155.0</ele><time>2026-04-28T16:01:57.536Z</time></trkpt><trkpt lat="45.6223084" lon="11.4313497"><ele>155.0</ele><time>2026-04-28T16:02:33.536Z</time></trkpt><trkpt lat="45.6222213" lon="11.4312611"><ele>155.0</ele><time>2026-04-28T16:02:50.536Z</time></trkpt><trkpt lat="45.622226" lon="11.431163"><ele>155.0</ele><time>2026-04-28T16:02:55.535Z</time></trkpt><trkpt lat="45.6222098" lon="11.4310665"><ele>154.85714285714286</ele><time>2026-04-28T16:03:00.536Z</time></trkpt><trkpt lat="45.6221737" lon="11.4309708"><ele>154.71428571428572</ele><time>2026-04-28T16:03:04.536Z</time></trkpt><trkpt lat="45.6221328" lon="11.4308762"><ele>154.57142857142856</ele><time>2026-04-28T16:03:08.536Z</time></trkpt><trkpt lat="45.6220886" lon="11.4308036"><ele>154.42857142857144</ele><time>2026-04-28T16:03:12.536Z</time></trkpt><trkpt lat="45.6220527" lon="11.4307106"><ele>154.28571428571428</ele><time>2026-04-28T16:03:17.537Z</time></trkpt><trkpt lat="45.6220126" lon="11.430631"><ele>154.14285714285714</ele><time>2026-04-28T16:03:23.536Z</time></trkpt><trkpt lat="45.6219918" lon="11.4305377"><ele>154.0</ele><time>2026-04-28T16:03:28.536Z</time></trkpt><trkpt lat="45.6219834" lon="11.4304429"><ele>156.28571428571428</ele><time>2026-04-28T16:03:32.536Z</time></trkpt><trkpt lat="45.6219212" lon="11.4303819"><ele>158.57142857142856</ele><time>2026-04-28T16:03:37.536Z</time></trkpt><trkpt lat="45.6218586" lon="11.4303486"><ele>160.85714285714286</ele><time>2026-04-28T16:03:42.536Z</time></trkpt><trkpt lat="45.6217904" lon="11.4303387"><ele>163.14285714285714</ele><time>2026-04-28T16:03:48.536Z</time></trkpt><trkpt lat="45.6217254" lon="11.4303696"><ele>165.42857142857142</ele><time>2026-04-28T16:03:56.536Z</time></trkpt><trkpt lat="45.6216523" lon="11.4303886"><ele>167.71428571428572</ele><time>2026-04-28T16:04:02.536Z</time></trkpt><trkpt lat="45.621576" lon="11.4303895"><ele>170.0</ele><time>2026-04-28T16:04:07.535Z</time></trkpt><trkpt lat="45.6215031" lon="11.4303936"><ele>170.0</ele><time>2026-04-28T16:04:11.536Z</time></trkpt><trkpt lat="45.621437" lon="11.4304232"><ele>170.0</ele><time>2026-04-28T16:04:15.536Z</time></trkpt><trkpt lat="45.6213694" lon="11.4304109"><ele>170.0</ele><time>2026-04-28T16:04:19.537Z</time></trkpt><trkpt lat="45.6212919" lon="11.4304178"><ele>170.0</ele><time>2026-04-28T16:04:24.536Z</time></trkpt><trkpt lat="45.6212146" lon="11.4303926"><ele>170.0</ele><time>2026-04-28T16:04:29.536Z</time></trkpt><trkpt lat="45.6211463" lon="11.4303869"><ele>170.0</ele><time>2026-04-28T16:04:34.536Z</time></trkpt><trkpt lat="45.6210889" lon="11.430348"><ele>170.0</ele><time>2026-04-28T16:04:42.536Z</time></trkpt><trkpt lat="45.621049" lon="11.4302604"><ele>172.57142857142858</ele><time>2026-04-28T16:04:55.537Z</time></trkpt><trkpt lat="45.6209871" lon="11.4302093"><ele>175.14285714285714</ele><time>2026-04-28T16:05:02.537Z</time></trkpt><trkpt lat="45.620928" lon="11.4301577"><ele>177.71428571428572</ele><time>2026-04-28T16:05:10.536Z</time></trkpt><trkpt lat="45.6208764" lon="11.4300919"><ele>180.28571428571428</ele><time>2026-04-28T16:05:16.536Z</time></trkpt><trkpt lat="45.6208205" lon="11.4300465"><ele>182.85714285714283</ele><time>2026-04-28T16:05:24.536Z</time></trkpt><trkpt lat="45.6207589" lon="11.4300067"><ele>185.42857142857142</ele><time>2026-04-28T16:05:30.536Z</time></trkpt><trkpt lat="45.6206949" lon="11.4299675"><ele>188.0</ele><time>2026-04-28T16:05:36.536Z</time></trkpt><trkpt lat="45.6206426" lon="11.4299172"><ele>188.0</ele><time>2026-04-28T16:05:42.536Z</time></trkpt><trkpt lat="45.6205891" lon="11.4298672"><ele>188.0</ele><time>2026-04-28T16:05:46.536Z</time></trkpt><trkpt lat="45.6205255" lon="11.4298135"><ele>188.0</ele><time>2026-04-28T16:05:52.536Z</time></trkpt><trkpt lat="45.6204568" lon="11.4297634"><ele>188.0</ele><time>2026-04-28T16:05:57.537Z</time></trkpt><trkpt lat="45.6203886" lon="11.4297404"><ele>188.0</ele><time>2026-04-28T16:06:01.537Z</time></trkpt><trkpt lat="45.6203254" lon="11.4297191"><ele>188.0</ele><time>2026-04-28T16:06:05.536Z</time></trkpt><trkpt lat="45.6202652" lon="11.4296744"><ele>188.0</ele><time>2026-04-28T16:06:09.536Z</time></trkpt><trkpt lat="45.6202036" lon="11.4296225"><ele>189.71428571428572</ele><time>2026-04-28T16:06:14.536Z</time></trkpt><trkpt lat="45.6201288" lon="11.4295865"><ele>191.42857142857142</ele><time>2026-04-28T16:06:18.537Z</time></trkpt><trkpt lat="45.6200658" lon="11.4295432"><ele>193.14285714285717</ele><time>2026-04-28T16:06:23.535Z</time></trkpt><trkpt lat="45.6199942" lon="11.4295038"><ele>194.85714285714286</ele><time>2026-04-28T16:06:29.536Z</time></trkpt><trkpt lat="45.6199312" lon="11.4294612"><ele>196.57142857142858</ele><time>2026-04-28T16:06:33.536Z</time></trkpt><trkpt lat="45.6198652" lon="11.4293979"><ele>198.2857142857143</ele><time>2026-04-28T16:06:37.537Z</time></trkpt><trkpt lat="45.6198033" lon="11.4293397"><ele>200.0</ele><time>2026-04-28T16:06:41.537Z</time></trkpt><trkpt lat="45.6197493" lon="11.4292785"><ele>200.00000000000003</ele><time>2026-04-28T16:06:46.536Z</time></trkpt><trkpt lat="45.6196978" lon="11.4291776"><ele>200.0</ele><time>2026-04-28T16:06:50.537Z</time></trkpt><trkpt lat="45.6196603" lon="11.4290656"><ele>200.0</ele><time>2026-04-28T16:06:53.536Z</time></trkpt><trkpt lat="45.6196409" lon="11.4289684"><ele>200.0</ele><time>2026-04-28T16:06:56.536Z</time></trkpt><trkpt lat="45.6195962" lon="11.4288842"><ele>200.0</ele><time>2026-04-28T16:07:00.537Z</time></trkpt><trkpt lat="45.6195666" lon="11.4288021"><ele>200.00000000000003</ele><time>2026-04-28T16:07:04.537Z</time></trkpt><trkpt lat="45.6195454" lon="11.4287136"><ele>200.0</ele><time>2026-04-28T16:07:07.537Z</time></trkpt><trkpt lat="45.6195174" lon="11.42859"><ele>201.33333333333334</ele><time>2026-04-28T16:07:10.537Z</time></trkpt><trkpt lat="45.6194731" lon="11.4284791"><ele>202.66666666666669</ele><time>2026-04-28T16:07:13.535Z</time></trkpt><trkpt lat="45.6194197" lon="11.4283874"><ele>204.0</ele><time>2026-04-28T16:07:16.537Z</time></trkpt><trkpt lat="45.6193609" lon="11.4283219"><ele>205.33333333333331</ele><time>2026-04-28T16:07:19.536Z</time></trkpt><trkpt lat="45.619316" lon="11.4282567"><ele>206.66666666666666</ele><time>2026-04-28T16:07:23.536Z</time></trkpt><trkpt lat="45.6192964" lon="11.428155"><ele>208.0</ele><time>2026-04-28T16:07:29.535Z</time></trkpt><trkpt lat="45.6192657" lon="11.4280638"><ele>207.28571428571428</ele><time>2026-04-28T16:07:34.537Z</time></trkpt><trkpt lat="45.6192364" lon="11.4279556"><ele>206.57142857142858</ele><time>2026-04-28T16:07:39.536Z</time></trkpt><trkpt lat="45.6191952" lon="11.4278776"><ele>205.85714285714286</ele><time>2026-04-28T16:07:43.536Z</time></trkpt><trkpt lat="45.6191369" lon="11.4278117"><ele>205.14285714285714</ele><time>2026-04-28T16:07:47.536Z</time></trkpt><trkpt lat="45.6191018" lon="11.4277247"><ele>204.42857142857144</ele><time>2026-04-28T16:07:51.537Z</time></trkpt><trkpt lat="45.6190514" lon="11.4276673"><ele>203.71428571428572</ele><time>2026-04-28T16:07:55.535Z</time></trkpt><trkpt lat="45.619021" lon="11.4275796"><ele>203.0</ele><time>2026-04-28T16:08:01.537Z</time></trkpt><trkpt lat="45.6189766" lon="11.42749"><ele>203.0</ele><time>2026-04-28T16:08:06.536Z</time></trkpt><trkpt lat="45.6189285" lon="11.4274258"><ele>203.0</ele><time>2026-04-28T16:08:10.536Z</time></trkpt><trkpt lat="45.6188783" lon="11.4273627"><ele>203.0</ele><time>2026-04-28T16:08:14.537Z</time></trkpt><trkpt lat="45.6188377" lon="11.4272684"><ele>203.0</ele><time>2026-04-28T16:08:20.537Z</time></trkpt><trkpt lat="45.6187811" lon="11.4272209"><ele>203.0</ele><time>2026-04-28T16:08:26.536Z</time></trkpt><trkpt lat="45.6187159" lon="11.4272268"><ele>203.0</ele><time>2026-04-28T16:08:30.537Z</time></trkpt><trkpt lat="45.6186449" lon="11.4272115"><ele>203.0</ele><time>2026-04-28T16:08:34.536Z</time></trkpt><trkpt lat="45.6185726" lon="11.4272193"><ele>203.71428571428572</ele><time>2026-04-28T16:08:40.536Z</time></trkpt><trkpt lat="45.6185084" lon="11.4272096"><ele>204.42857142857144</ele><time>2026-04-28T16:08:45.536Z</time></trkpt><trkpt lat="45.6184435" lon="11.4271778"><ele>205.14285714285714</ele><time>2026-04-28T16:08:50.536Z</time></trkpt><trkpt lat="45.6183726" lon="11.4271549"><ele>205.85714285714286</ele><time>2026-04-28T16:08:56.536Z</time></trkpt><trkpt lat="45.6183086" lon="11.4271377"><ele>206.57142857142858</ele><time>2026-04-28T16:09:03.537Z</time></trkpt><trkpt lat="45.6182497" lon="11.4270966"><ele>207.28571428571428</ele><time>2026-04-28T16:09:11.537Z</time></trkpt><trkpt lat="45.6181766" lon="11.4271283"><ele>208.0</ele><time>2026-04-28T16:09:23.535Z</time></trkpt><trkpt lat="45.6181248" lon="11.4270695"><ele>208.0</ele><time>2026-04-28T16:09:31.535Z</time></trkpt><trkpt lat="45.6180582" lon="11.4270549"><ele>208.0</ele><time>2026-04-28T16:09:37.535Z</time></trkpt><trkpt lat="45.6179826" lon="11.4270537"><ele>208.0</ele><time>2026-04-28T16:09:43.536Z</time></trkpt><trkpt lat="45.6179144" lon="11.4270327"><ele>208.0</ele><time>2026-04-28T16:09:49.536Z</time></trkpt><trkpt lat="45.6178431" lon="11.4270348"><ele>208.0</ele><time>2026-04-28T16:09:56.536Z</time></trkpt><trkpt lat="45.6177689" lon="11.427056"><ele>208.0</ele><time>2026-04-28T16:10:00.535Z</time></trkpt><trkpt lat="45.6177067" lon="11.4271034"><ele>208.0</ele><time>2026-04-28T16:10:05.535Z</time></trkpt><trkpt lat="45.617638" lon="11.4271372"><ele>212.42857142857142</ele><time>2026-04-28T16:10:11.535Z</time></trkpt><trkpt lat="45.6175893" lon="11.4272158"><ele>216.8571428571429</ele><time>2026-04-28T16:10:21.536Z</time></trkpt><trkpt lat="45.6175561" lon="11.4272948"><ele>221.2857142857143</ele><time>2026-04-28T16:10:28.536Z</time></trkpt><trkpt lat="45.6175104" lon="11.4273701"><ele>225.71428571428572</ele><time>2026-04-28T16:10:37.535Z</time></trkpt><trkpt lat="45.6174469" lon="11.427371"><ele>230.14285714285717</ele><time>2026-04-28T16:10:45.536Z</time></trkpt><trkpt lat="45.6173821" lon="11.4273704"><ele>234.5714285714286</ele><time>2026-04-28T16:10:52.535Z</time></trkpt><trkpt lat="45.6173127" lon="11.427383"><ele>239.00000000000003</ele><time>2026-04-28T16:10:59.536Z</time></trkpt><trkpt lat="45.6172432" lon="11.4274333"><ele>239.00000000000003</ele><time>2026-04-28T16:11:06.536Z</time></trkpt><trkpt lat="45.6172059" lon="11.4275088"><ele>239.0</ele><time>2026-04-28T16:11:10.536Z</time></trkpt><trkpt lat="45.6171813" lon="11.427601"><ele>239.00000000000003</ele><time>2026-04-28T16:11:15.536Z</time></trkpt><trkpt lat="45.6171216" lon="11.4276483"><ele>239.00000000000003</ele><time>2026-04-28T16:11:21.534Z</time></trkpt><trkpt lat="45.6170783" lon="11.4277269"><ele>239.0</ele><time>2026-04-28T16:12:01.473Z</time></trkpt><trkpt lat="45.6170235" lon="11.4276677"><ele>239.00000000000003</ele><time>2026-04-28T16:12:15.536Z</time></trkpt><trkpt lat="45.6169566" lon="11.4276803"><ele>239.00000000000003</ele><time>2026-04-28T16:12:22.535Z</time></trkpt><trkpt lat="45.6167993" lon="11.4276387"><ele>241.28571428571433</ele><time>2026-04-28T16:12:43.536Z</time></trkpt><trkpt lat="45.6167358" lon="11.4276205"><ele>243.57142857142858</ele><time>2026-04-28T16:12:50.535Z</time></trkpt><trkpt lat="45.6166761" lon="11.4275854"><ele>245.8571428571429</ele><time>2026-04-28T16:12:55.536Z</time></trkpt><trkpt lat="45.6166193" lon="11.4275336"><ele>248.14285714285717</ele><time>2026-04-28T16:13:01.535Z</time></trkpt><trkpt lat="45.6165537" lon="11.4275127"><ele>250.42857142857144</ele><time>2026-04-28T16:13:08.535Z</time></trkpt><trkpt lat="45.6165066" lon="11.4275865"><ele>252.71428571428572</ele><time>2026-04-28T16:13:15.536Z</time></trkpt><trkpt lat="45.616443" lon="11.4276188"><ele>255.0</ele><time>2026-04-28T16:13:21.536Z</time></trkpt><trkpt lat="45.6163795" lon="11.4276419"><ele>255.0</ele><time>2026-04-28T16:13:26.536Z</time></trkpt><trkpt lat="45.6163175" lon="11.427677"><ele>255.00000000000003</ele><time>2026-04-28T16:13:31.535Z</time></trkpt><trkpt lat="45.6162687" lon="11.4277383"><ele>255.0</ele><time>2026-04-28T16:13:35.536Z</time></trkpt><trkpt lat="45.6162223" lon="11.4278049"><ele>255.0</ele><time>2026-04-28T16:13:40.535Z</time></trkpt><trkpt lat="45.6161737" lon="11.427878"><ele>255.00000000000003</ele><time>2026-04-28T16:13:46.535Z</time></trkpt><trkpt lat="45.6161105" lon="11.4278882"><ele>255.0</ele><time>2026-04-28T16:13:51.535Z</time></trkpt><trkpt lat="45.6160392" lon="11.4279197"><ele>255.0</ele><time>2026-04-28T16:13:58.535Z</time></trkpt><trkpt lat="45.6159918" lon="11.4279798"><ele>258.42857142857144</ele><time>2026-04-28T16:14:03.536Z</time></trkpt><trkpt lat="45.6159613" lon="11.4280748"><ele>261.8571428571429</ele><time>2026-04-28T16:14:07.535Z</time></trkpt><trkpt lat="45.6159004" lon="11.4281047"><ele>265.2857142857143</ele><time>2026-04-28T16:14:17.536Z</time></trkpt><trkpt lat="45.6158541" lon="11.4281685"><ele>268.7142857142857</ele><time>2026-04-28T16:14:23.535Z</time></trkpt><trkpt lat="45.6157998" lon="11.4282267"><ele>272.1428571428571</ele><time>2026-04-28T16:14:28.536Z</time></trkpt><trkpt lat="45.6157575" lon="11.4283043"><ele>275.57142857142856</ele><time>2026-04-28T16:14:33.535Z</time></trkpt><trkpt lat="45.6157519" lon="11.428399"><ele>279.0</ele><time>2026-04-28T16:14:36.535Z</time></trkpt><trkpt lat="45.6157713" lon="11.4285134"><ele>279.0</ele><time>2026-04-28T16:14:40.536Z</time></trkpt><trkpt lat="45.6157009" lon="11.428539"><ele>279.0</ele><time>2026-04-28T16:14:50.535Z</time></trkpt><trkpt lat="45.6156429" lon="11.4284909"><ele>279.0</ele><time>2026-04-28T16:14:52.535Z</time></trkpt><trkpt lat="45.6155728" lon="11.4284682"><ele>279.0</ele><time>2026-04-28T16:15:10.536Z</time></trkpt><trkpt lat="45.6149897" lon="11.42803"><ele>282.4</ele><time>2026-04-28T16:16:04.536Z</time></trkpt><trkpt lat="45.6150698" lon="11.4277506"><ele>285.79999999999995</ele><time>2026-04-28T16:16:19.535Z</time></trkpt><trkpt lat="45.6150785" lon="11.4276386"><ele>289.20000000000005</ele><time>2026-04-28T16:16:24.536Z</time></trkpt><trkpt lat="45.6150616" lon="11.4275459"><ele>292.6</ele><time>2026-04-28T16:16:28.535Z</time></trkpt><trkpt lat="45.6150179" lon="11.4274716"><ele>296.0</ele><time>2026-04-28T16:16:32.535Z</time></trkpt><trkpt lat="45.6149685" lon="11.4274093"><ele>296.0</ele><time>2026-04-28T16:16:36.534Z</time></trkpt><trkpt lat="45.6148996" lon="11.4273727"><ele>296.0</ele><time>2026-04-28T16:16:43.535Z</time></trkpt><trkpt lat="45.6148537" lon="11.4273061"><ele>296.0</ele><time>2026-04-28T16:16:50.535Z</time></trkpt><trkpt lat="45.6148004" lon="11.4272535"><ele>296.0</ele><time>2026-04-28T16:16:55.535Z</time></trkpt><trkpt lat="45.6147502" lon="11.427195"><ele>296.0</ele><time>2026-04-28T16:17:02.534Z</time></trkpt><trkpt lat="45.6146931" lon="11.4271531"><ele>296.0</ele><time>2026-04-28T16:17:10.534Z</time></trkpt><trkpt lat="45.6146677" lon="11.4270649"><ele>296.0</ele><time>2026-04-28T16:17:17.535Z</time></trkpt><trkpt lat="45.6146158" lon="11.4269923"><ele>296.0</ele><time>2026-04-28T16:17:23.534Z</time></trkpt><trkpt lat="45.6145634" lon="11.42694"><ele>296.0</ele><time>2026-04-28T16:17:31.535Z</time></trkpt><trkpt lat="45.6145473" lon="11.4268394"><ele>296.0</ele><time>2026-04-28T16:17:37.535Z</time></trkpt><trkpt lat="45.6145679" lon="11.4267305"><ele>296.0</ele><time>2026-04-28T16:17:46.534Z</time></trkpt><trkpt lat="45.6145725" lon="11.4266348"><ele>296.0</ele><time>2026-04-28T16:17:51.535Z</time></trkpt><trkpt lat="45.6145717" lon="11.42654"><ele>296.0</ele><time>2026-04-28T16:17:56.535Z</time></trkpt><trkpt lat="45.6145765" lon="11.4264484"><ele>296.0</ele><time>2026-04-28T16:18:00.534Z</time></trkpt><trkpt lat="45.6145898" lon="11.4263568"><ele>295.8571428571429</ele><time>2026-04-28T16:18:04.534Z</time></trkpt><trkpt lat="45.6145697" lon="11.4262714"><ele>295.7142857142857</ele><time>2026-04-28T16:18:08.534Z</time></trkpt><trkpt lat="45.6145177" lon="11.426193"><ele>295.57142857142856</ele><time>2026-04-28T16:18:13.534Z</time></trkpt><trkpt lat="45.6144597" lon="11.4261487"><ele>295.42857142857144</ele><time>2026-04-28T16:18:20.534Z</time></trkpt><trkpt lat="45.6143873" lon="11.4261495"><ele>295.2857142857143</ele><time>2026-04-28T16:18:30.535Z</time></trkpt><trkpt lat="45.614326" lon="11.426185"><ele>295.14285714285717</ele><time>2026-04-28T16:18:35.534Z</time></trkpt><trkpt lat="45.6142611" lon="11.4262161"><ele>295.0</ele><time>2026-04-28T16:18:42.534Z</time></trkpt><trkpt lat="45.6141894" lon="11.4262361"><ele>297.28571428571433</ele><time>2026-04-28T16:18:48.534Z</time></trkpt><trkpt lat="45.6141275" lon="11.4262069"><ele>299.57142857142856</ele><time>2026-04-28T16:18:51.534Z</time></trkpt><trkpt lat="45.614065" lon="11.4261711"><ele>301.8571428571429</ele><time>2026-04-28T16:18:57.535Z</time></trkpt><trkpt lat="45.6139946" lon="11.4261746"><ele>304.14285714285717</ele><time>2026-04-28T16:19:02.535Z</time></trkpt><trkpt lat="45.6139136" lon="11.4261495"><ele>306.42857142857144</ele><time>2026-04-28T16:19:06.534Z</time></trkpt><trkpt lat="45.6138402" lon="11.4260896"><ele>308.7142857142857</ele><time>2026-04-28T16:19:09.535Z</time></trkpt><trkpt lat="45.6137709" lon="11.4260437"><ele>311.0</ele><time>2026-04-28T16:19:12.534Z</time></trkpt><trkpt lat="45.6137004" lon="11.426011"><ele>311.85714285714283</ele><time>2026-04-28T16:19:15.534Z</time></trkpt><trkpt lat="45.6136336" lon="11.4260063"><ele>312.7142857142857</ele><time>2026-04-28T16:19:18.534Z</time></trkpt><trkpt lat="45.6135592" lon="11.4260019"><ele>313.57142857142856</ele><time>2026-04-28T16:19:23.535Z</time></trkpt><trkpt lat="45.6134893" lon="11.4259853"><ele>314.42857142857144</ele><time>2026-04-28T16:19:25.534Z</time></trkpt><trkpt lat="45.6134297" lon="11.4259432"><ele>315.2857142857143</ele><time>2026-04-28T16:19:27.533Z</time></trkpt><trkpt lat="45.6133644" lon="11.4258673"><ele>316.14285714285717</ele><time>2026-04-28T16:19:30.534Z</time></trkpt><trkpt lat="45.6133124" lon="11.425805"><ele>317.0</ele><time>2026-04-28T16:19:34.534Z</time></trkpt><trkpt lat="45.6132753" lon="11.4257314"><ele>317.0</ele><time>2026-04-28T16:19:39.534Z</time></trkpt><trkpt lat="45.6132494" lon="11.4256348"><ele>317.0</ele><time>2026-04-28T16:19:44.438Z</time></trkpt><trkpt lat="45.6131877" lon="11.4255944"><ele>317.0</ele><time>2026-04-28T16:19:48.534Z</time></trkpt><trkpt lat="45.6131417" lon="11.4255137"><ele>317.0</ele><time>2026-04-28T16:19:54.568Z</time></trkpt><trkpt lat="45.6130751" lon="11.4254857"><ele>317.0</ele><time>2026-04-28T16:20:01.534Z</time></trkpt><trkpt lat="45.613047" lon="11.4253842"><ele>317.0</ele><time>2026-04-28T16:20:05.534Z</time></trkpt><trkpt lat="45.6130401" lon="11.4252802"><ele>317.0</ele><time>2026-04-28T16:20:10.534Z</time></trkpt><trkpt lat="45.6130377" lon="11.4251864"><ele>314.5</ele><time>2026-04-28T16:20:14.534Z</time></trkpt><trkpt lat="45.6130435" lon="11.4250858"><ele>312.0</ele><time>2026-04-28T16:20:18.535Z</time></trkpt><trkpt lat="45.6130064" lon="11.4250082"><ele>309.5</ele><time>2026-04-28T16:20:21.534Z</time></trkpt><trkpt lat="45.6129896" lon="11.4249035"><ele>307.0</ele><time>2026-04-28T16:20:25.534Z</time></trkpt><trkpt lat="45.6129537" lon="11.4247728"><ele>304.5</ele><time>2026-04-28T16:20:28.534Z</time></trkpt><trkpt lat="45.6128931" lon="11.4246743"><ele>302.0</ele><time>2026-04-28T16:20:30.534Z</time></trkpt><trkpt lat="45.6128361" lon="11.4246116"><ele>305.5714285714286</ele><time>2026-04-28T16:20:32.534Z</time></trkpt><trkpt lat="45.6127805" lon="11.424561"><ele>309.14285714285717</ele><time>2026-04-28T16:20:34.535Z</time></trkpt><trkpt lat="45.612722" lon="11.4245168"><ele>312.7142857142857</ele><time>2026-04-28T16:20:36.535Z</time></trkpt><trkpt lat="45.6126623" lon="11.4244695"><ele>316.28571428571433</ele><time>2026-04-28T16:20:38.535Z</time></trkpt><trkpt lat="45.6126092" lon="11.4244179"><ele>319.8571428571429</ele><time>2026-04-28T16:20:41.534Z</time></trkpt><trkpt lat="45.6125656" lon="11.4243481"><ele>323.42857142857144</ele><time>2026-04-28T16:20:45.535Z</time></trkpt><trkpt lat="45.6125714" lon="11.4242528"><ele>327.0</ele><time>2026-04-28T16:20:50.535Z</time></trkpt><trkpt lat="45.6126046" lon="11.4241729"><ele>327.0</ele><time>2026-04-28T16:20:55.534Z</time></trkpt><trkpt lat="45.6125848" lon="11.4240831"><ele>327.0</ele><time>2026-04-28T16:21:02.534Z</time></trkpt><trkpt lat="45.6125543" lon="11.4239863"><ele>327.0</ele><time>2026-04-28T16:21:06.534Z</time></trkpt><trkpt lat="45.6125221" lon="11.4238875"><ele>327.0</ele><time>2026-04-28T16:21:13.534Z</time></trkpt><trkpt lat="45.6124972" lon="11.4237913"><ele>327.0</ele><time>2026-04-28T16:21:18.535Z</time></trkpt><trkpt lat="45.6124903" lon="11.423682"><ele>327.0</ele><time>2026-04-28T16:21:22.534Z</time></trkpt><trkpt lat="45.6124877" lon="11.423584"><ele>327.0</ele><time>2026-04-28T16:21:25.534Z</time></trkpt><trkpt lat="45.6124886" lon="11.4234633"><ele>325.5</ele><time>2026-04-28T16:21:28.534Z</time></trkpt><trkpt lat="45.612476" lon="11.4233357"><ele>324.0</ele><time>2026-04-28T16:21:30.534Z</time></trkpt><trkpt lat="45.6124646" lon="11.4232044"><ele>322.5</ele><time>2026-04-28T16:21:32.535Z</time></trkpt><trkpt lat="45.6124676" lon="11.4230951"><ele>321.0</ele><time>2026-04-28T16:21:34.535Z</time></trkpt><trkpt lat="45.6124462" lon="11.4229836"><ele>319.5</ele><time>2026-04-28T16:21:37.534Z</time></trkpt><trkpt lat="45.6124331" lon="11.4228745"><ele>318.0</ele><time>2026-04-28T16:21:40.535Z</time></trkpt><trkpt lat="45.6124176" lon="11.4227691"><ele>316.0</ele><time>2026-04-28T16:21:42.535Z</time></trkpt><trkpt lat="45.6124055" lon="11.4226413"><ele>314.0</ele><time>2026-04-28T16:21:44.535Z</time></trkpt><trkpt lat="45.612412" lon="11.4225199"><ele>312.0</ele><time>2026-04-28T16:21:46.534Z</time></trkpt><trkpt lat="45.6124021" lon="11.4223855"><ele>310.0</ele><time>2026-04-28T16:21:48.534Z</time></trkpt><trkpt lat="45.6123296" lon="11.4222676"><ele>308.0</ele><time>2026-04-28T16:21:50.535Z</time></trkpt><trkpt lat="45.6122645" lon="11.4221899"><ele>306.2</ele><time>2026-04-28T16:21:52.534Z</time></trkpt><trkpt lat="45.6121721" lon="11.4220206"><ele>304.4</ele><time>2026-04-28T16:21:54.535Z</time></trkpt><trkpt lat="45.6121193" lon="11.4219585"><ele>302.59999999999997</ele><time>2026-04-28T16:22:02.534Z</time></trkpt><trkpt lat="45.6120644" lon="11.4218889"><ele>300.8</ele><time>2026-04-28T16:22:09.534Z</time></trkpt><trkpt lat="45.612103" lon="11.4217257"><ele>299.0</ele><time>2026-04-28T16:22:12.534Z</time></trkpt><trkpt lat="45.6121319" lon="11.4216276"><ele>299.0</ele><time>2026-04-28T16:22:14.534Z</time></trkpt><trkpt lat="45.6121352" lon="11.4215085"><ele>299.0</ele><time>2026-04-28T16:22:16.535Z</time></trkpt><trkpt lat="45.6121438" lon="11.4213833"><ele>299.0</ele><time>2026-04-28T16:22:18.535Z</time></trkpt><trkpt lat="45.6121722" lon="11.4212775"><ele>299.0</ele><time>2026-04-28T16:22:20.535Z</time></trkpt><trkpt lat="45.6122179" lon="11.4211657"><ele>299.0</ele><time>2026-04-28T16:22:23.535Z</time></trkpt><trkpt lat="45.6122408" lon="11.4210393"><ele>299.0</ele><time>2026-04-28T16:22:25.534Z</time></trkpt><trkpt lat="45.6122259" lon="11.420938"><ele>299.7142857142857</ele><time>2026-04-28T16:22:27.535Z</time></trkpt><trkpt lat="45.6121899" lon="11.4208583"><ele>300.42857142857144</ele><time>2026-04-28T16:22:29.534Z</time></trkpt><trkpt lat="45.6121782" lon="11.4207697"><ele>301.1428571428571</ele><time>2026-04-28T16:22:31.534Z</time></trkpt><trkpt lat="45.6122046" lon="11.4206492"><ele>301.8571428571429</ele><time>2026-04-28T16:22:34.534Z</time></trkpt><trkpt lat="45.6122295" lon="11.4205387"><ele>302.5714285714286</ele><time>2026-04-28T16:22:38.534Z</time></trkpt><trkpt lat="45.6122475" lon="11.4204375"><ele>303.2857142857143</ele><time>2026-04-28T16:22:42.534Z</time></trkpt><trkpt lat="45.6122776" lon="11.4203454"><ele>304.0</ele><time>2026-04-28T16:22:45.535Z</time></trkpt><trkpt lat="45.6123064" lon="11.4202599"><ele>305.3333333333333</ele><time>2026-04-28T16:22:48.534Z</time></trkpt><trkpt lat="45.6123375" lon="11.4201753"><ele>306.66666666666663</ele><time>2026-04-28T16:22:51.534Z</time></trkpt><trkpt lat="45.6123625" lon="11.4200633"><ele>308.0</ele><time>2026-04-28T16:22:55.535Z</time></trkpt><trkpt lat="45.6123721" lon="11.4199436"><ele>309.3333333333333</ele><time>2026-04-28T16:22:58.535Z</time></trkpt><trkpt lat="45.6123842" lon="11.4198408"><ele>310.6666666666667</ele><time>2026-04-28T16:23:01.534Z</time></trkpt><trkpt lat="45.6123986" lon="11.4197156"><ele>312.0</ele><time>2026-04-28T16:23:03.534Z</time></trkpt><trkpt lat="45.6124055" lon="11.4196228"><ele>314.0</ele><time>2026-04-28T16:23:06.534Z</time></trkpt><trkpt lat="45.6124426" lon="11.419494"><ele>316.0</ele><time>2026-04-28T16:25:42.534Z</time></trkpt><trkpt lat="45.6124977" lon="11.4194008"><ele>318.0</ele><time>2026-04-28T16:25:43.535Z</time></trkpt><trkpt lat="45.6125762" lon="11.4192685"><ele>320.0</ele><time>2026-04-28T16:25:45.534Z</time></trkpt><trkpt lat="45.612701" lon="11.4191369"><ele>320.0</ele><time>2026-04-28T16:25:47.535Z</time></trkpt><trkpt lat="45.6127715" lon="11.4191279"><ele>320.0</ele><time>2026-04-28T16:25:48.535Z</time></trkpt><trkpt lat="45.6128726" lon="11.4190962"><ele>320.0</ele><time>2026-04-28T16:25:49.534Z</time></trkpt><trkpt lat="45.612969" lon="11.4190651"><ele>320.0</ele><time>2026-04-28T16:25:50.534Z</time></trkpt><trkpt lat="45.6130654" lon="11.4190041"><ele>320.0</ele><time>2026-04-28T16:25:51.534Z</time></trkpt><trkpt lat="45.6131581" lon="11.4190006"><ele>318.5</ele><time>2026-04-28T16:25:52.535Z</time></trkpt><trkpt lat="45.6132544" lon="11.4189127"><ele>317.0</ele><time>2026-04-28T16:25:53.535Z</time></trkpt><trkpt lat="45.6133273" lon="11.4188665"><ele>315.5</ele><time>2026-04-28T16:25:54.534Z</time></trkpt><trkpt lat="45.6133957" lon="11.4188337"><ele>314.0</ele><time>2026-04-28T16:25:55.534Z</time></trkpt><trkpt lat="45.6134603" lon="11.4187663"><ele>312.5</ele><time>2026-04-28T16:25:56.534Z</time></trkpt><trkpt lat="45.6135282" lon="11.4187166"><ele>311.0</ele><time>2026-04-28T16:25:57.534Z</time></trkpt><trkpt lat="45.6135841" lon="11.418627"><ele>311.0</ele><time>2026-04-28T16:25:58.535Z</time></trkpt><trkpt lat="45.6136481" lon="11.4185663"><ele>311.0</ele><time>2026-04-28T16:25:59.534Z</time></trkpt><trkpt lat="45.6137259" lon="11.4185066"><ele>311.0</ele><time>2026-04-28T16:26:00.534Z</time></trkpt><trkpt lat="45.613842" lon="11.4184954"><ele>311.0</ele><time>2026-04-28T16:26:02.535Z</time></trkpt><trkpt lat="45.6139467" lon="11.418496"><ele>311.0</ele><time>2026-04-28T16:26:04.534Z</time></trkpt><trkpt lat="45.6140324" lon="11.4185218"><ele>310.83333333333337</ele><time>2026-04-28T16:26:06.534Z</time></trkpt><trkpt lat="45.6140858" lon="11.4185706"><ele>310.6666666666667</ele><time>2026-04-28T16:26:08.535Z</time></trkpt><trkpt lat="45.6141678" lon="11.4185992"><ele>310.5</ele><time>2026-04-28T16:26:10.535Z</time></trkpt><trkpt lat="45.6142243" lon="11.4186403"><ele>310.3333333333333</ele><time>2026-04-28T16:26:12.533Z</time></trkpt><trkpt lat="45.6143048" lon="11.4186769"><ele>310.16666666666663</ele><time>2026-04-28T16:26:14.534Z</time></trkpt><trkpt lat="45.6143599" lon="11.4187657"><ele>310.0</ele><time>2026-04-28T16:26:16.535Z</time></trkpt><trkpt lat="45.6144475" lon="11.4188675"><ele>310.0</ele><time>2026-04-28T16:26:18.535Z</time></trkpt><trkpt lat="45.6144851" lon="11.419012"><ele>310.0</ele><time>2026-04-28T16:26:20.535Z</time></trkpt><trkpt lat="45.6145101" lon="11.4191458"><ele>310.0</ele><time>2026-04-28T16:26:22.534Z</time></trkpt><trkpt lat="45.6145242" lon="11.4192783"><ele>310.0</ele><time>2026-04-28T16:26:24.535Z</time></trkpt><trkpt lat="45.6145238" lon="11.4194305"><ele>310.0</ele><time>2026-04-28T16:26:26.533Z</time></trkpt><trkpt lat="45.6145519" lon="11.4195964"><ele>309.5</ele><time>2026-04-28T16:26:28.534Z</time></trkpt><trkpt lat="45.6146141" lon="11.4196813"><ele>309.0</ele><time>2026-04-28T16:26:29.535Z</time></trkpt><trkpt lat="45.6148576" lon="11.4196865"><ele>308.5</ele><time>2026-04-28T16:26:30.534Z</time></trkpt><trkpt lat="45.6149476" lon="11.4196996"><ele>308.0</ele><time>2026-04-28T16:26:31.534Z</time></trkpt><trkpt lat="45.6150478" lon="11.4196792"><ele>308.0</ele><time>2026-04-28T16:26:32.534Z</time></trkpt><trkpt lat="45.6151334" lon="11.4196553"><ele>308.0</ele><time>2026-04-28T16:26:33.534Z</time></trkpt><trkpt lat="45.6152138" lon="11.4195601"><ele>308.0</ele><time>2026-04-28T16:26:34.535Z</time></trkpt><trkpt lat="45.6153037" lon="11.4194862"><ele>308.0</ele><time>2026-04-28T16:26:35.534Z</time></trkpt><trkpt lat="45.6153799" lon="11.4194275"><ele>308.0</ele><time>2026-04-28T16:26:36.535Z</time></trkpt><trkpt lat="45.6154718" lon="11.4193569"><ele>306.8</ele><time>2026-04-28T16:26:37.534Z</time></trkpt><trkpt lat="45.6155579" lon="11.4192874"><ele>305.6</ele><time>2026-04-28T16:26:38.534Z</time></trkpt><trkpt lat="45.615662" lon="11.4192319"><ele>304.4</ele><time>2026-04-28T16:26:39.534Z</time></trkpt><trkpt lat="45.6157498" lon="11.4192093"><ele>303.2</ele><time>2026-04-28T16:26:40.534Z</time></trkpt><trkpt lat="45.6158452" lon="11.4191698"><ele>302.0</ele><time>2026-04-28T16:26:41.534Z</time></trkpt><trkpt lat="45.6159636" lon="11.4191813"><ele>302.0</ele><time>2026-04-28T16:26:42.534Z</time></trkpt><trkpt lat="45.6160487" lon="11.4191988"><ele>302.0</ele><time>2026-04-28T16:26:43.535Z</time></trkpt><trkpt lat="45.6161432" lon="11.419246"><ele>302.0</ele><time>2026-04-28T16:26:44.534Z</time></trkpt><trkpt lat="45.6162387" lon="11.4192491"><ele>302.0</ele><time>2026-04-28T16:26:45.534Z</time></trkpt><trkpt lat="45.6163461" lon="11.4192751"><ele>302.0</ele><time>2026-04-28T16:26:46.534Z</time></trkpt><trkpt lat="45.6164485" lon="11.4192757"><ele>299.6</ele><time>2026-04-28T16:26:47.534Z</time></trkpt><trkpt lat="45.6165234" lon="11.4192638"><ele>297.2</ele><time>2026-04-28T16:26:48.534Z</time></trkpt><trkpt lat="45.6165921" lon="11.4192401"><ele>294.8</ele><time>2026-04-28T16:26:49.535Z</time></trkpt><trkpt lat="45.6166747" lon="11.4190592"><ele>292.4</ele><time>2026-04-28T16:26:51.533Z</time></trkpt><trkpt lat="45.6167475" lon="11.418876"><ele>290.0</ele><time>2026-04-28T16:26:52.535Z</time></trkpt><trkpt lat="45.6167261" lon="11.4186529"><ele>289.6</ele><time>2026-04-28T16:26:53.534Z</time></trkpt><trkpt lat="45.6167213" lon="11.4185328"><ele>289.2</ele><time>2026-04-28T16:26:54.534Z</time></trkpt><trkpt lat="45.6165959" lon="11.4183497"><ele>288.8</ele><time>2026-04-28T16:26:55.534Z</time></trkpt><trkpt lat="45.6165604" lon="11.4182435"><ele>288.4</ele><time>2026-04-28T16:26:56.534Z</time></trkpt><trkpt lat="45.616532" lon="11.4181202"><ele>288.0</ele><time>2026-04-28T16:26:57.534Z</time></trkpt><trkpt lat="45.6164942" lon="11.4180202"><ele>288.0</ele><time>2026-04-28T16:26:58.534Z</time></trkpt><trkpt lat="45.6163209" lon="11.418031"><ele>288.0</ele><time>2026-04-28T16:26:59.535Z</time></trkpt><trkpt lat="45.6161734" lon="11.4179821"><ele>288.0</ele><time>2026-04-28T16:27:00.535Z</time></trkpt><trkpt lat="45.6161009" lon="11.4179472"><ele>288.0</ele><time>2026-04-28T16:27:01.534Z</time></trkpt><trkpt lat="45.615986" lon="11.417878"><ele>286.6</ele><time>2026-04-28T16:27:02.534Z</time></trkpt><trkpt lat="45.6158875" lon="11.4177972"><ele>285.20000000000005</ele><time>2026-04-28T16:27:03.534Z</time></trkpt><trkpt lat="45.6157872" lon="11.4177182"><ele>283.8</ele><time>2026-04-28T16:27:04.534Z</time></trkpt><trkpt lat="45.6157666" lon="11.4176182"><ele>282.40000000000003</ele><time>2026-04-28T16:27:05.534Z</time></trkpt><trkpt lat="45.6157658" lon="11.4175008"><ele>281.0</ele><time>2026-04-28T16:27:08.535Z</time></trkpt><trkpt lat="45.6158585" lon="11.4173645"><ele>281.0</ele><time>2026-04-28T16:27:10.535Z</time></trkpt><trkpt lat="45.6159091" lon="11.4172343"><ele>281.0</ele><time>2026-04-28T16:27:11.534Z</time></trkpt><trkpt lat="45.6159277" lon="11.4171063"><ele>281.0</ele><time>2026-04-28T16:27:12.534Z</time></trkpt><trkpt lat="45.6159501" lon="11.4169676"><ele>281.0</ele><time>2026-04-28T16:27:13.535Z</time></trkpt><trkpt lat="45.6159744" lon="11.4168171"><ele>281.0</ele><time>2026-04-28T16:27:14.534Z</time></trkpt><trkpt lat="45.6159964" lon="11.4166686"><ele>281.0</ele><time>2026-04-28T16:27:15.535Z</time></trkpt><trkpt lat="45.616035" lon="11.4165185"><ele>281.0</ele><time>2026-04-28T16:27:16.535Z</time></trkpt><trkpt lat="45.6160679" lon="11.4163788"><ele>281.0</ele><time>2026-04-28T16:27:17.535Z</time></trkpt><trkpt lat="45.6161424" lon="11.416256"><ele>281.0</ele><time>2026-04-28T16:27:18.534Z</time></trkpt><trkpt lat="45.6162141" lon="11.4161266"><ele>281.0</ele><time>2026-04-28T16:27:19.534Z</time></trkpt><trkpt lat="45.6162972" lon="11.4160591"><ele>277.5</ele><time>2026-04-28T16:27:20.535Z</time></trkpt><trkpt lat="45.6163819" lon="11.4159621"><ele>274.0</ele><time>2026-04-28T16:27:21.535Z</time></trkpt><trkpt lat="45.6164697" lon="11.4158502"><ele>270.5</ele><time>2026-04-28T16:27:22.534Z</time></trkpt><trkpt lat="45.6165803" lon="11.4157701"><ele>267.0</ele><time>2026-04-28T16:27:23.535Z</time></trkpt><trkpt lat="45.6166595" lon="11.4156722"><ele>267.0</ele><time>2026-04-28T16:27:24.535Z</time></trkpt><trkpt lat="45.6167523" lon="11.4155549"><ele>267.0</ele><time>2026-04-28T16:27:25.535Z</time></trkpt><trkpt lat="45.6168242" lon="11.4154299"><ele>267.0</ele><time>2026-04-28T16:27:26.534Z</time></trkpt><trkpt lat="45.6169016" lon="11.4153038"><ele>267.0</ele><time>2026-04-28T16:27:27.535Z</time></trkpt><trkpt lat="45.616967" lon="11.4151147"><ele>261.5</ele><time>2026-04-28T16:27:28.535Z</time></trkpt><trkpt lat="45.6170185" lon="11.4149492"><ele>256.0</ele><time>2026-04-28T16:27:29.534Z</time></trkpt><trkpt lat="45.6170792" lon="11.4147656"><ele>250.5</ele><time>2026-04-28T16:27:30.534Z</time></trkpt><trkpt lat="45.61714" lon="11.4145677"><ele>245.0</ele><time>2026-04-28T16:27:31.534Z</time></trkpt><trkpt lat="45.6171684" lon="11.4142428"><ele>245.0</ele><time>2026-04-28T16:27:32.533Z</time></trkpt><trkpt lat="45.61717" lon="11.4140847"><ele>245.0</ele><time>2026-04-28T16:27:33.533Z</time></trkpt><trkpt lat="45.6171989" lon="11.4139644"><ele>245.0</ele><time>2026-04-28T16:27:34.534Z</time></trkpt><trkpt lat="45.6172225" lon="11.4137985"><ele>245.0</ele><time>2026-04-28T16:27:35.534Z</time></trkpt><trkpt lat="45.6172921" lon="11.4136304"><ele>246.33333333333334</ele><time>2026-04-28T16:27:36.533Z</time></trkpt><trkpt lat="45.6173356" lon="11.4135439"><ele>247.66666666666669</ele><time>2026-04-28T16:27:37.534Z</time></trkpt><trkpt lat="45.6174131" lon="11.4134816"><ele>249.0</ele><time>2026-04-28T16:27:38.533Z</time></trkpt><trkpt lat="45.617456" lon="11.4133711"><ele>250.33333333333331</ele><time>2026-04-28T16:27:39.533Z</time></trkpt><trkpt lat="45.6175088" lon="11.4132829"><ele>251.66666666666666</ele><time>2026-04-28T16:27:40.533Z</time></trkpt><trkpt lat="45.6175762" lon="11.4132421"><ele>253.0</ele><time>2026-04-28T16:27:41.534Z</time></trkpt><trkpt lat="45.6176185" lon="11.4133522"><ele>252.99999999999997</ele><time>2026-04-28T16:27:42.533Z</time></trkpt><trkpt lat="45.6176289" lon="11.4134444"><ele>253.0</ele><time>2026-04-28T16:27:43.534Z</time></trkpt><trkpt lat="45.6175627" lon="11.4135469"><ele>253.0</ele><time>2026-04-28T16:27:45.533Z</time></trkpt><trkpt lat="45.6175242" lon="11.4136287"><ele>253.0</ele><time>2026-04-28T16:27:46.533Z</time></trkpt><trkpt lat="45.6174825" lon="11.4137146"><ele>252.99999999999997</ele><time>2026-04-28T16:27:47.533Z</time></trkpt><trkpt lat="45.6174354" lon="11.4137806"><ele>253.0</ele><time>2026-04-28T16:27:48.533Z</time></trkpt><trkpt lat="45.6173908" lon="11.4138799"><ele>251.4</ele><time>2026-04-28T16:27:49.533Z</time></trkpt><trkpt lat="45.6173259" lon="11.4140195"><ele>249.8</ele><time>2026-04-28T16:27:51.533Z</time></trkpt><trkpt lat="45.6173945" lon="11.414142"><ele>248.2</ele><time>2026-04-28T16:27:53.533Z</time></trkpt><trkpt lat="45.617505" lon="11.4142361"><ele>246.6</ele><time>2026-04-28T16:27:55.533Z</time></trkpt><trkpt lat="45.6175062" lon="11.4141123"><ele>245.0</ele><time>2026-04-28T16:27:56.534Z</time></trkpt><trkpt lat="45.6175244" lon="11.4139748"><ele>245.0</ele><time>2026-04-28T16:27:57.534Z</time></trkpt><trkpt lat="45.6175864" lon="11.413923"><ele>245.0</ele><time>2026-04-28T16:27:58.534Z</time></trkpt><trkpt lat="45.6176306" lon="11.413834"><ele>245.0</ele><time>2026-04-28T16:27:59.533Z</time></trkpt><trkpt lat="45.6177141" lon="11.4137814"><ele>245.0</ele><time>2026-04-28T16:28:00.534Z</time></trkpt><trkpt lat="45.6178155" lon="11.413694"><ele>245.0</ele><time>2026-04-28T16:28:01.533Z</time></trkpt><trkpt lat="45.6178696" lon="11.4135566"><ele>240.25</ele><time>2026-04-28T16:28:02.534Z</time></trkpt><trkpt lat="45.6179337" lon="11.4134257"><ele>235.5</ele><time>2026-04-28T16:28:03.533Z</time></trkpt><trkpt lat="45.6179925" lon="11.4132816"><ele>230.75</ele><time>2026-04-28T16:28:04.533Z</time></trkpt><trkpt lat="45.618045" lon="11.4131476"><ele>226.0</ele><time>2026-04-28T16:28:05.534Z</time></trkpt><trkpt lat="45.6180716" lon="11.4129482"><ele>226.0</ele><time>2026-04-28T16:28:06.533Z</time></trkpt><trkpt lat="45.6180881" lon="11.4128014"><ele>226.00000000000003</ele><time>2026-04-28T16:28:07.533Z</time></trkpt><trkpt lat="45.618128" lon="11.4126864"><ele>226.00000000000003</ele><time>2026-04-28T16:28:08.533Z</time></trkpt><trkpt lat="45.6181739" lon="11.4125586"><ele>226.0</ele><time>2026-04-28T16:28:09.533Z</time></trkpt><trkpt lat="45.6182457" lon="11.4124519"><ele>226.0</ele><time>2026-04-28T16:28:10.533Z</time></trkpt><trkpt lat="45.6182803" lon="11.4123291"><ele>226.0</ele><time>2026-04-28T16:28:11.534Z</time></trkpt><trkpt lat="45.6183104" lon="11.4122206"><ele>226.00000000000003</ele><time>2026-04-28T16:28:12.534Z</time></trkpt><trkpt lat="45.6183408" lon="11.4120459"><ele>226.00000000000003</ele><time>2026-04-28T16:28:13.533Z</time></trkpt><trkpt lat="45.6183851" lon="11.4119111"><ele>226.0</ele><time>2026-04-28T16:28:14.533Z</time></trkpt><trkpt lat="45.6184397" lon="11.4117878"><ele>226.0</ele><time>2026-04-28T16:28:15.533Z</time></trkpt><trkpt lat="45.6185006" lon="11.4116491"><ele>223.5</ele><time>2026-04-28T16:28:16.534Z</time></trkpt><trkpt lat="45.6185727" lon="11.4115526"><ele>221.0</ele><time>2026-04-28T16:28:17.533Z</time></trkpt><trkpt lat="45.6186807" lon="11.41148"><ele>218.5</ele><time>2026-04-28T16:28:18.534Z</time></trkpt><trkpt lat="45.6188141" lon="11.4114519"><ele>216.0</ele><time>2026-04-28T16:28:19.533Z</time></trkpt><trkpt lat="45.6189163" lon="11.4113629"><ele>218.0</ele><time>2026-04-28T16:28:20.533Z</time></trkpt><trkpt lat="45.6190124" lon="11.4112884"><ele>220.00000000000003</ele><time>2026-04-28T16:28:21.534Z</time></trkpt><trkpt lat="45.6191067" lon="11.4112054"><ele>222.00000000000003</ele><time>2026-04-28T16:28:22.534Z</time></trkpt><trkpt lat="45.6192102" lon="11.4111414"><ele>224.0</ele><time>2026-04-28T16:28:23.534Z</time></trkpt><trkpt lat="45.6193034" lon="11.4110838"><ele>226.0</ele><time>2026-04-28T16:28:24.533Z</time></trkpt><trkpt lat="45.6194032" lon="11.4110166"><ele>222.25</ele><time>2026-04-28T16:28:25.533Z</time></trkpt><trkpt lat="45.6195119" lon="11.4109469"><ele>218.5</ele><time>2026-04-28T16:28:26.534Z</time></trkpt><trkpt lat="45.6196175" lon="11.4108781"><ele>214.75</ele><time>2026-04-28T16:28:27.533Z</time></trkpt><trkpt lat="45.619731" lon="11.4108316"><ele>211.0</ele><time>2026-04-28T16:28:28.533Z</time></trkpt><trkpt lat="45.6198214" lon="11.4107831"><ele>210.99999999999997</ele><time>2026-04-28T16:28:29.533Z</time></trkpt><trkpt lat="45.6198903" lon="11.4107679"><ele>211.0</ele><time>2026-04-28T16:28:30.533Z</time></trkpt><trkpt lat="45.6199482" lon="11.4108552"><ele>211.0</ele><time>2026-04-28T16:28:31.533Z</time></trkpt><trkpt lat="45.6200396" lon="11.4108585"><ele>211.0</ele><time>2026-04-28T16:28:32.533Z</time></trkpt><trkpt lat="45.620118" lon="11.4108715"><ele>210.99999999999997</ele><time>2026-04-28T16:28:33.534Z</time></trkpt><trkpt lat="45.6202229" lon="11.4108954"><ele>211.0</ele><time>2026-04-28T16:28:34.532Z</time></trkpt><trkpt lat="45.6203205" lon="11.410885"><ele>207.16666666666666</ele><time>2026-04-28T16:28:35.534Z</time></trkpt><trkpt lat="45.6204106" lon="11.4108961"><ele>203.33333333333331</ele><time>2026-04-28T16:28:36.533Z</time></trkpt><trkpt lat="45.6204493" lon="11.4109686"><ele>199.5</ele><time>2026-04-28T16:28:37.533Z</time></trkpt><trkpt lat="45.6204976" lon="11.4110332"><ele>195.66666666666666</ele><time>2026-04-28T16:28:38.534Z</time></trkpt><trkpt lat="45.6204386" lon="11.4111725"><ele>191.83333333333331</ele><time>2026-04-28T16:28:39.534Z</time></trkpt><trkpt lat="45.6203969" lon="11.4112836"><ele>188.0</ele><time>2026-04-28T16:28:40.533Z</time></trkpt><trkpt lat="45.6203743" lon="11.411369"><ele>185.60000000000002</ele><time>2026-04-28T16:28:41.533Z</time></trkpt><trkpt lat="45.6203436" lon="11.411478"><ele>183.20000000000002</ele><time>2026-04-28T16:28:42.533Z</time></trkpt><trkpt lat="45.6203027" lon="11.4115878"><ele>180.8</ele><time>2026-04-28T16:28:43.534Z</time></trkpt><trkpt lat="45.6202679" lon="11.4117138"><ele>178.4</ele><time>2026-04-28T16:28:44.533Z</time></trkpt><trkpt lat="45.6202164" lon="11.4118191"><ele>176.0</ele><time>2026-04-28T16:28:45.533Z</time></trkpt><trkpt lat="45.6201176" lon="11.4118752"><ele>179.25</ele><time>2026-04-28T16:28:46.533Z</time></trkpt><trkpt lat="45.6200462" lon="11.4120473"><ele>182.5</ele><time>2026-04-28T16:28:47.533Z</time></trkpt><trkpt lat="45.6199541" lon="11.412152"><ele>185.75</ele><time>2026-04-28T16:28:48.534Z</time></trkpt><trkpt lat="45.6199152" lon="11.4122933"><ele>189.0</ele><time>2026-04-28T16:28:49.533Z</time></trkpt><trkpt lat="45.6198669" lon="11.4124239"><ele>189.0</ele><time>2026-04-28T16:28:50.534Z</time></trkpt><trkpt lat="45.6198296" lon="11.4126147"><ele>189.0</ele><time>2026-04-28T16:28:51.534Z</time></trkpt><trkpt lat="45.6197811" lon="11.4127636"><ele>189.0</ele><time>2026-04-28T16:28:52.533Z</time></trkpt><trkpt lat="45.6196842" lon="11.4128697"><ele>189.0</ele><time>2026-04-28T16:28:53.534Z</time></trkpt><trkpt lat="45.619596" lon="11.4130041"><ele>190.0</ele><time>2026-04-28T16:28:54.533Z</time></trkpt><trkpt lat="45.6195181" lon="11.4131178"><ele>191.0</ele><time>2026-04-28T16:28:55.533Z</time></trkpt><trkpt lat="45.6194265" lon="11.4132026"><ele>192.0</ele><time>2026-04-28T16:28:56.533Z</time></trkpt><trkpt lat="45.6193316" lon="11.4133104"><ele>193.0</ele><time>2026-04-28T16:28:57.533Z</time></trkpt><trkpt lat="45.6192603" lon="11.413443"><ele>193.0</ele><time>2026-04-28T16:28:58.534Z</time></trkpt><trkpt lat="45.6191893" lon="11.4135804"><ele>193.0</ele><time>2026-04-28T16:28:59.533Z</time></trkpt><trkpt lat="45.6191506" lon="11.4137359"><ele>193.0</ele><time>2026-04-28T16:29:00.533Z</time></trkpt><trkpt lat="45.6191365" lon="11.4138825"><ele>193.0</ele><time>2026-04-28T16:29:01.533Z</time></trkpt><trkpt lat="45.6191418" lon="11.4140321"><ele>193.0</ele><time>2026-04-28T16:29:02.533Z</time></trkpt><trkpt lat="45.6191445" lon="11.4142134"><ele>191.4</ele><time>2026-04-28T16:29:03.534Z</time></trkpt><trkpt lat="45.6191905" lon="11.4143372"><ele>189.8</ele><time>2026-04-28T16:29:04.533Z</time></trkpt><trkpt lat="45.6192327" lon="11.4144576"><ele>188.2</ele><time>2026-04-28T16:29:05.533Z</time></trkpt><trkpt lat="45.6192945" lon="11.4145822"><ele>186.6</ele><time>2026-04-28T16:29:06.534Z</time></trkpt><trkpt lat="45.6193558" lon="11.4146717"><ele>185.0</ele><time>2026-04-28T16:29:07.533Z</time></trkpt><trkpt lat="45.6194222" lon="11.4147715"><ele>184.5</ele><time>2026-04-28T16:29:08.534Z</time></trkpt><trkpt lat="45.6194749" lon="11.4148671"><ele>184.0</ele><time>2026-04-28T16:29:09.533Z</time></trkpt><trkpt lat="45.6195433" lon="11.4149515"><ele>183.5</ele><time>2026-04-28T16:29:10.533Z</time></trkpt><trkpt lat="45.619625" lon="11.4150229"><ele>183.0</ele><time>2026-04-28T16:29:11.533Z</time></trkpt><trkpt lat="45.6196932" lon="11.4150798"><ele>182.5</ele><time>2026-04-28T16:29:12.533Z</time></trkpt><trkpt lat="45.6197593" lon="11.415111"><ele>182.0</ele><time>2026-04-28T16:29:13.533Z</time></trkpt><trkpt lat="45.6198483" lon="11.4151219"><ele>182.0</ele><time>2026-04-28T16:29:14.534Z</time></trkpt><trkpt lat="45.6199342" lon="11.4151471"><ele>182.0</ele><time>2026-04-28T16:29:15.534Z</time></trkpt><trkpt lat="45.6200142" lon="11.4151665"><ele>182.0</ele><time>2026-04-28T16:29:16.534Z</time></trkpt><trkpt lat="45.6200889" lon="11.4151469"><ele>182.0</ele><time>2026-04-28T16:29:17.534Z</time></trkpt><trkpt lat="45.6201637" lon="11.4151196"><ele>182.0</ele><time>2026-04-28T16:29:18.534Z</time></trkpt><trkpt lat="45.6202409" lon="11.4150902"><ele>182.0</ele><time>2026-04-28T16:29:19.533Z</time></trkpt><trkpt lat="45.6203272" lon="11.4150141"><ele>181.2</ele><time>2026-04-28T16:29:20.533Z</time></trkpt><trkpt lat="45.6203826" lon="11.4149234"><ele>180.39999999999998</ele><time>2026-04-28T16:29:21.533Z</time></trkpt><trkpt lat="45.6204739" lon="11.4148522"><ele>179.60000000000002</ele><time>2026-04-28T16:29:22.534Z</time></trkpt><trkpt lat="45.6205533" lon="11.4147931"><ele>178.8</ele><time>2026-04-28T16:29:23.532Z</time></trkpt><trkpt lat="45.620632" lon="11.4147419"><ele>178.0</ele><time>2026-04-28T16:29:24.534Z</time></trkpt><trkpt lat="45.6207272" lon="11.4147328"><ele>178.0</ele><time>2026-04-28T16:29:25.533Z</time></trkpt><trkpt lat="45.6208466" lon="11.4147983"><ele>178.0</ele><time>2026-04-28T16:29:26.533Z</time></trkpt><trkpt lat="45.6209456" lon="11.4148195"><ele>178.0</ele><time>2026-04-28T16:29:27.533Z</time></trkpt><trkpt lat="45.6210456" lon="11.4148312"><ele>178.0</ele><time>2026-04-28T16:29:28.533Z</time></trkpt><trkpt lat="45.6211462" lon="11.4148258"><ele>178.0</ele><time>2026-04-28T16:29:29.533Z</time></trkpt><trkpt lat="45.6212412" lon="11.4148624"><ele>176.4</ele><time>2026-04-28T16:29:30.533Z</time></trkpt><trkpt lat="45.6213459" lon="11.4148718"><ele>174.8</ele><time>2026-04-28T16:29:31.534Z</time></trkpt><trkpt lat="45.621443" lon="11.4148743"><ele>173.2</ele><time>2026-04-28T16:29:32.534Z</time></trkpt><trkpt lat="45.6215556" lon="11.4148583"><ele>171.6</ele><time>2026-04-28T16:29:33.533Z</time></trkpt><trkpt lat="45.621667" lon="11.4148525"><ele>170.0</ele><time>2026-04-28T16:29:34.533Z</time></trkpt><trkpt lat="45.6217647" lon="11.4148489"><ele>170.0</ele><time>2026-04-28T16:29:35.533Z</time></trkpt><trkpt lat="45.6218639" lon="11.414836"><ele>170.0</ele><time>2026-04-28T16:29:36.533Z</time></trkpt><trkpt lat="45.6219652" lon="11.4148668"><ele>170.0</ele><time>2026-04-28T16:29:37.533Z</time></trkpt><trkpt lat="45.6220625" lon="11.4149825"><ele>170.0</ele><time>2026-04-28T16:29:38.533Z</time></trkpt><trkpt lat="45.6221054" lon="11.4150897"><ele>170.0</ele><time>2026-04-28T16:29:39.532Z</time></trkpt><trkpt lat="45.6221907" lon="11.415147"><ele>168.6</ele><time>2026-04-28T16:29:40.534Z</time></trkpt><trkpt lat="45.6222701" lon="11.4152117"><ele>167.2</ele><time>2026-04-28T16:29:41.533Z</time></trkpt><trkpt lat="45.6223477" lon="11.4152902"><ele>165.8</ele><time>2026-04-28T16:29:42.533Z</time></trkpt><trkpt lat="45.6224241" lon="11.4153612"><ele>164.4</ele><time>2026-04-28T16:29:43.533Z</time></trkpt><trkpt lat="45.6225366" lon="11.4153453"><ele>163.0</ele><time>2026-04-28T16:29:44.533Z</time></trkpt><trkpt lat="45.6226168" lon="11.4153899"><ele>163.0</ele><time>2026-04-28T16:29:45.533Z</time></trkpt><trkpt lat="45.622779" lon="11.4153429"><ele>163.0</ele><time>2026-04-28T16:29:46.533Z</time></trkpt><trkpt lat="45.6228807" lon="11.4152705"><ele>163.0</ele><time>2026-04-28T16:29:47.534Z</time></trkpt><trkpt lat="45.622976" lon="11.4152048"><ele>163.0</ele><time>2026-04-28T16:29:48.533Z</time></trkpt><trkpt lat="45.6230555" lon="11.415124"><ele>161.20000000000002</ele><time>2026-04-28T16:29:49.533Z</time></trkpt><trkpt lat="45.6231455" lon="11.4150552"><ele>159.4</ele><time>2026-04-28T16:29:50.534Z</time></trkpt><trkpt lat="45.6232328" lon="11.4150518"><ele>157.60000000000002</ele><time>2026-04-28T16:29:51.534Z</time></trkpt><trkpt lat="45.6233314" lon="11.4150404"><ele>155.8</ele><time>2026-04-28T16:29:52.534Z</time></trkpt><trkpt lat="45.6233454" lon="11.4151854"><ele>154.0</ele><time>2026-04-28T16:29:53.533Z</time></trkpt><trkpt lat="45.623393" lon="11.4152546"><ele>154.0</ele><time>2026-04-28T16:29:54.533Z</time></trkpt><trkpt lat="45.6234031" lon="11.4153564"><ele>154.0</ele><time>2026-04-28T16:29:55.534Z</time></trkpt><trkpt lat="45.62331" lon="11.4155515"><ele>154.0</ele><time>2026-04-28T16:29:56.533Z</time></trkpt><trkpt lat="45.6232859" lon="11.4156731"><ele>154.0</ele><time>2026-04-28T16:29:57.534Z</time></trkpt><trkpt lat="45.6232569" lon="11.4158187"><ele>154.0</ele><time>2026-04-28T16:29:58.533Z</time></trkpt><trkpt lat="45.6232397" lon="11.4159691"><ele>153.2</ele><time>2026-04-28T16:29:59.533Z</time></trkpt><trkpt lat="45.6232171" lon="11.4161225"><ele>152.4</ele><time>2026-04-28T16:30:00.534Z</time></trkpt><trkpt lat="45.6231916" lon="11.4162598"><ele>151.6</ele><time>2026-04-28T16:30:01.533Z</time></trkpt><trkpt lat="45.6231541" lon="11.4164101"><ele>150.8</ele><time>2026-04-28T16:30:02.534Z</time></trkpt><trkpt lat="45.623124" lon="11.4165661"><ele>150.0</ele><time>2026-04-28T16:30:03.533Z</time></trkpt><trkpt lat="45.6231114" lon="11.4167108"><ele>148.0</ele><time>2026-04-28T16:30:04.533Z</time></trkpt><trkpt lat="45.623095" lon="11.4168685"><ele>146.0</ele><time>2026-04-28T16:30:05.533Z</time></trkpt><trkpt lat="45.6230712" lon="11.4170096"><ele>144.0</ele><time>2026-04-28T16:30:06.533Z</time></trkpt><trkpt lat="45.6230254" lon="11.4171628"><ele>142.0</ele><time>2026-04-28T16:30:07.534Z</time></trkpt><trkpt lat="45.6229832" lon="11.4173248"><ele>140.33333333333334</ele><time>2026-04-28T16:30:08.533Z</time></trkpt><trkpt lat="45.6229223" lon="11.4174305"><ele>138.66666666666669</ele><time>2026-04-28T16:30:09.534Z</time></trkpt><trkpt lat="45.6229037" lon="11.4175374"><ele>137.0</ele><time>2026-04-28T16:30:10.534Z</time></trkpt><trkpt lat="45.6229005" lon="11.4176298"><ele>135.33333333333334</ele><time>2026-04-28T16:30:11.534Z</time></trkpt><trkpt lat="45.6229099" lon="11.417772"><ele>133.66666666666666</ele><time>2026-04-28T16:30:12.533Z</time></trkpt><trkpt lat="45.6229577" lon="11.4178731"><ele>132.0</ele><time>2026-04-28T16:30:13.534Z</time></trkpt><trkpt lat="45.6230191" lon="11.4179725"><ele>130.75</ele><time>2026-04-28T16:30:14.533Z</time></trkpt><trkpt lat="45.6231242" lon="11.4180851"><ele>129.5</ele><time>2026-04-28T16:30:15.534Z</time></trkpt><trkpt lat="45.6232015" lon="11.418184"><ele>128.25</ele><time>2026-04-28T16:30:16.533Z</time></trkpt><trkpt lat="45.6232837" lon="11.4183016"><ele>127.0</ele><time>2026-04-28T16:30:17.534Z</time></trkpt><trkpt lat="45.6233716" lon="11.4184185"><ele>127.0</ele><time>2026-04-28T16:30:18.534Z</time></trkpt><trkpt lat="45.6234639" lon="11.4185356"><ele>127.0</ele><time>2026-04-28T16:30:19.533Z</time></trkpt><trkpt lat="45.6235562" lon="11.4186594"><ele>127.0</ele><time>2026-04-28T16:30:20.533Z</time></trkpt><trkpt lat="45.6236594" lon="11.4187773"><ele>127.0</ele><time>2026-04-28T16:30:21.534Z</time></trkpt><trkpt lat="45.6237538" lon="11.4189034"><ele>125.25</ele><time>2026-04-28T16:30:22.533Z</time></trkpt><trkpt lat="45.6238536" lon="11.419029"><ele>123.5</ele><time>2026-04-28T16:30:23.533Z</time></trkpt><trkpt lat="45.6239849" lon="11.41912"><ele>121.75</ele><time>2026-04-28T16:30:24.533Z</time></trkpt><trkpt lat="45.624108" lon="11.4191779"><ele>120.0</ele><time>2026-04-28T16:30:25.533Z</time></trkpt><trkpt lat="45.6242313" lon="11.4192499"><ele>120.0</ele><time>2026-04-28T16:30:26.533Z</time></trkpt><trkpt lat="45.6243152" lon="11.4192245"><ele>120.0</ele><time>2026-04-28T16:30:27.534Z</time></trkpt><trkpt lat="45.6244176" lon="11.4191659"><ele>120.0</ele><time>2026-04-28T16:30:28.533Z</time></trkpt><trkpt lat="45.6245183" lon="11.4190884"><ele>120.0</ele><time>2026-04-28T16:30:29.533Z</time></trkpt><trkpt lat="45.6246033" lon="11.4190211"><ele>120.0</ele><time>2026-04-28T16:30:30.533Z</time></trkpt><trkpt lat="45.624706" lon="11.4189515"><ele>118.0</ele><time>2026-04-28T16:30:31.533Z</time></trkpt><trkpt lat="45.6248188" lon="11.4188585"><ele>116.0</ele><time>2026-04-28T16:30:32.534Z</time></trkpt><trkpt lat="45.6249247" lon="11.4188293"><ele>114.0</ele><time>2026-04-28T16:30:33.534Z</time></trkpt><trkpt lat="45.6250304" lon="11.4187603"><ele>112.0</ele><time>2026-04-28T16:30:34.533Z</time></trkpt><trkpt lat="45.625156" lon="11.4187454"><ele>112.0</ele><time>2026-04-28T16:30:35.533Z</time></trkpt><trkpt lat="45.6252151" lon="11.4189094"><ele>111.99999999999999</ele><time>2026-04-28T16:30:36.533Z</time></trkpt><trkpt lat="45.6253207" lon="11.4189367"><ele>111.99999999999999</ele><time>2026-04-28T16:30:37.533Z</time></trkpt><trkpt lat="45.6254157" lon="11.4189816"><ele>112.0</ele><time>2026-04-28T16:30:38.533Z</time></trkpt><trkpt lat="45.6255064" lon="11.4190526"><ele>112.0</ele><time>2026-04-28T16:30:39.533Z</time></trkpt><trkpt lat="45.6256128" lon="11.4190813"><ele>109.5</ele><time>2026-04-28T16:30:40.533Z</time></trkpt><trkpt lat="45.6256738" lon="11.4192395"><ele>107.0</ele><time>2026-04-28T16:30:41.533Z</time></trkpt><trkpt lat="45.6257458" lon="11.4193588"><ele>104.5</ele><time>2026-04-28T16:30:42.534Z</time></trkpt><trkpt lat="45.6257928" lon="11.4195175"><ele>102.0</ele><time>2026-04-28T16:30:43.534Z</time></trkpt><trkpt lat="45.625855" lon="11.4196328"><ele>101.8</ele><time>2026-04-28T16:30:44.533Z</time></trkpt><trkpt lat="45.6259234" lon="11.4197761"><ele>101.6</ele><time>2026-04-28T16:30:45.534Z</time></trkpt><trkpt lat="45.6259806" lon="11.4198987"><ele>101.39999999999999</ele><time>2026-04-28T16:30:46.534Z</time></trkpt><trkpt lat="45.626033" lon="11.4200265"><ele>101.19999999999999</ele><time>2026-04-28T16:30:47.533Z</time></trkpt><trkpt lat="45.6260629" lon="11.4201458"><ele>101.0</ele><time>2026-04-28T16:30:48.533Z</time></trkpt><trkpt lat="45.6260042" lon="11.4202743"><ele>101.0</ele><time>2026-04-28T16:30:49.533Z</time></trkpt><trkpt lat="45.6259904" lon="11.4204163"><ele>101.0</ele><time>2026-04-28T16:30:50.534Z</time></trkpt><trkpt lat="45.6260072" lon="11.4205601"><ele>101.0</ele><time>2026-04-28T16:30:51.533Z</time></trkpt><trkpt lat="45.6260211" lon="11.4207024"><ele>101.0</ele><time>2026-04-28T16:30:52.534Z</time></trkpt><trkpt lat="45.62603" lon="11.420842"><ele>101.0</ele><time>2026-04-28T16:30:53.534Z</time></trkpt><trkpt lat="45.6260677" lon="11.4209643"><ele>99.8</ele><time>2026-04-28T16:30:54.532Z</time></trkpt><trkpt lat="45.6260928" lon="11.4210823"><ele>98.6</ele><time>2026-04-28T16:30:55.533Z</time></trkpt><trkpt lat="45.626153" lon="11.4212312"><ele>97.4</ele><time>2026-04-28T16:30:56.534Z</time></trkpt><trkpt lat="45.6262179" lon="11.4213722"><ele>96.2</ele><time>2026-04-28T16:30:57.533Z</time></trkpt><trkpt lat="45.6262696" lon="11.4214923"><ele>95.0</ele><time>2026-04-28T16:30:58.534Z</time></trkpt><trkpt lat="45.6263288" lon="11.4215987"><ele>93.4</ele><time>2026-04-28T16:30:59.534Z</time></trkpt><trkpt lat="45.626384" lon="11.4217083"><ele>91.8</ele><time>2026-04-28T16:31:00.533Z</time></trkpt><trkpt lat="45.6264416" lon="11.4218354"><ele>90.19999999999999</ele><time>2026-04-28T16:31:01.534Z</time></trkpt><trkpt lat="45.6265064" lon="11.4219601"><ele>88.6</ele><time>2026-04-28T16:31:02.533Z</time></trkpt><trkpt lat="45.6266205" lon="11.4220594"><ele>87.0</ele><time>2026-04-28T16:31:03.533Z</time></trkpt><trkpt lat="45.6267137" lon="11.4221677"><ele>86.25</ele><time>2026-04-28T16:31:04.533Z</time></trkpt><trkpt lat="45.6268012" lon="11.4222907"><ele>85.5</ele><time>2026-04-28T16:31:05.533Z</time></trkpt><trkpt lat="45.6269054" lon="11.422427"><ele>84.75</ele><time>2026-04-28T16:31:06.533Z</time></trkpt><trkpt lat="45.6269851" lon="11.4225733"><ele>84.0</ele><time>2026-04-28T16:31:07.532Z</time></trkpt><trkpt lat="45.6270578" lon="11.4227001"><ele>83.4</ele><time>2026-04-28T16:31:08.533Z</time></trkpt><trkpt lat="45.6271078" lon="11.4228279"><ele>82.80000000000001</ele><time>2026-04-28T16:31:09.533Z</time></trkpt><trkpt lat="45.6272016" lon="11.422884"><ele>82.19999999999999</ele><time>2026-04-28T16:31:10.533Z</time></trkpt><trkpt lat="45.6272753" lon="11.4229631"><ele>81.6</ele><time>2026-04-28T16:31:11.533Z</time></trkpt><trkpt lat="45.6273372" lon="11.4230646"><ele>81.0</ele><time>2026-04-28T16:31:12.533Z</time></trkpt><trkpt lat="45.6274012" lon="11.4231458"><ele>80.8</ele><time>2026-04-28T16:31:13.533Z</time></trkpt><trkpt lat="45.6274731" lon="11.4232279"><ele>80.6</ele><time>2026-04-28T16:31:14.533Z</time></trkpt><trkpt lat="45.6275702" lon="11.423364"><ele>80.4</ele><time>2026-04-28T16:31:16.533Z</time></trkpt><trkpt lat="45.6276228" lon="11.4234389"><ele>80.2</ele><time>2026-04-28T16:31:17.533Z</time></trkpt><trkpt lat="45.6276796" lon="11.423505"><ele>80.0</ele><time>2026-04-28T16:31:18.534Z</time></trkpt><trkpt lat="45.6277425" lon="11.4235898"><ele>80.0</ele><time>2026-04-28T16:31:19.533Z</time></trkpt><trkpt lat="45.6277874" lon="11.423664"><ele>80.0</ele><time>2026-04-28T16:31:20.533Z</time></trkpt><trkpt lat="45.6278441" lon="11.4237325"><ele>80.0</ele><time>2026-04-28T16:31:21.533Z</time></trkpt><trkpt lat="45.6279144" lon="11.4238278"><ele>80.0</ele><time>2026-04-28T16:31:22.533Z</time></trkpt><trkpt lat="45.627969" lon="11.4239332"><ele>80.0</ele><time>2026-04-28T16:31:23.533Z</time></trkpt><trkpt lat="45.6280315" lon="11.4240013"><ele>80.0</ele><time>2026-04-28T16:31:24.533Z</time></trkpt><trkpt lat="45.6280234" lon="11.4241274"><ele>80.16666666666667</ele><time>2026-04-28T16:31:25.533Z</time></trkpt><trkpt lat="45.6280542" lon="11.4242361"><ele>80.33333333333334</ele><time>2026-04-28T16:31:26.533Z</time></trkpt><trkpt lat="45.6280555" lon="11.4243392"><ele>80.5</ele><time>2026-04-28T16:31:27.534Z</time></trkpt><trkpt lat="45.6280681" lon="11.4244349"><ele>80.66666666666667</ele><time>2026-04-28T16:31:28.533Z</time></trkpt><trkpt lat="45.6280759" lon="11.4245324"><ele>80.83333333333333</ele><time>2026-04-28T16:31:29.533Z</time></trkpt><trkpt lat="45.6280745" lon="11.4247056"><ele>81.0</ele><time>2026-04-28T16:31:31.533Z</time></trkpt><trkpt lat="45.6280572" lon="11.4247958"><ele>81.0</ele><time>2026-04-28T16:31:32.534Z</time></trkpt><trkpt lat="45.6280766" lon="11.4248875"><ele>81.0</ele><time>2026-04-28T16:31:33.534Z</time></trkpt><trkpt lat="45.628103" lon="11.4250179"><ele>81.0</ele><time>2026-04-28T16:31:35.533Z</time></trkpt><trkpt lat="45.6281235" lon="11.4251162"><ele>81.0</ele><time>2026-04-28T16:31:36.533Z</time></trkpt><trkpt lat="45.6281507" lon="11.4252878"><ele>81.0</ele><time>2026-04-28T16:31:38.534Z</time></trkpt><trkpt lat="45.6281815" lon="11.4253994"><ele>81.0</ele><time>2026-04-28T16:31:39.534Z</time></trkpt><trkpt lat="45.6282003" lon="11.4254911"><ele>80.5</ele><time>2026-04-28T16:31:40.533Z</time></trkpt><trkpt lat="45.6282166" lon="11.425584"><ele>80.0</ele><time>2026-04-28T16:31:41.534Z</time></trkpt><trkpt lat="45.6282571" lon="11.4257297"><ele>79.5</ele><time>2026-04-28T16:31:43.532Z</time></trkpt><trkpt lat="45.6283068" lon="11.4258423"><ele>79.0</ele><time>2026-04-28T16:31:45.532Z</time></trkpt><trkpt lat="45.6285092" lon="11.4259391"><ele>79.0</ele><time>2026-04-28T16:31:50.534Z</time></trkpt><trkpt lat="45.6285912" lon="11.4258145"><ele>79.0</ele><time>2026-04-28T16:31:52.533Z</time></trkpt><trkpt lat="45.6286685" lon="11.4257715"><ele>79.0</ele><time>2026-04-28T16:31:54.533Z</time></trkpt><trkpt lat="45.6287274" lon="11.4257383"><ele>79.0</ele><time>2026-04-28T16:31:55.534Z</time></trkpt><trkpt lat="45.6288517" lon="11.4256786"><ele>79.0</ele><time>2026-04-28T16:31:57.533Z</time></trkpt><trkpt lat="45.6289363" lon="11.4256061"><ele>79.4</ele><time>2026-04-28T16:31:59.533Z</time></trkpt><trkpt lat="45.6290273" lon="11.4255426"><ele>79.80000000000001</ele><time>2026-04-28T16:32:01.533Z</time></trkpt><trkpt lat="45.6291219" lon="11.4255071"><ele>80.19999999999999</ele><time>2026-04-28T16:32:03.534Z</time></trkpt><trkpt lat="45.6292412" lon="11.4254507"><ele>80.6</ele><time>2026-04-28T16:32:05.533Z</time></trkpt><trkpt lat="45.6293369" lon="11.425409"><ele>81.0</ele><time>2026-04-28T16:32:07.534Z</time></trkpt><trkpt lat="45.6294245" lon="11.4253658"><ele>81.8</ele><time>2026-04-28T16:32:09.533Z</time></trkpt><trkpt lat="45.6295388" lon="11.4253045"><ele>82.6</ele><time>2026-04-28T16:32:11.534Z</time></trkpt><trkpt lat="45.6296308" lon="11.425256"><ele>83.4</ele><time>2026-04-28T16:32:13.534Z</time></trkpt><trkpt lat="45.6297084" lon="11.4252288"><ele>84.2</ele><time>2026-04-28T16:32:15.533Z</time></trkpt><trkpt lat="45.6297844" lon="11.4252012"><ele>85.0</ele><time>2026-04-28T16:32:17.534Z</time></trkpt><trkpt lat="45.6298572" lon="11.4251809"><ele>85.0</ele><time>2026-04-28T16:32:19.533Z</time></trkpt><trkpt lat="45.6299286" lon="11.4251653"><ele>85.0</ele><time>2026-04-28T16:32:21.534Z</time></trkpt><trkpt lat="45.6299996" lon="11.4251452"><ele>85.0</ele><time>2026-04-28T16:32:23.533Z</time></trkpt><trkpt lat="45.6300718" lon="11.4251128"><ele>85.0</ele><time>2026-04-28T16:32:25.533Z</time></trkpt><trkpt lat="45.6301353" lon="11.4250787"><ele>85.0</ele><time>2026-04-28T16:32:27.534Z</time></trkpt><trkpt lat="45.630214" lon="11.4250432"><ele>85.0</ele><time>2026-04-28T16:32:30.533Z</time></trkpt><trkpt lat="45.6302905" lon="11.4250113"><ele>85.16666666666666</ele><time>2026-04-28T16:32:33.533Z</time></trkpt><trkpt lat="45.6303594" lon="11.424996"><ele>85.33333333333333</ele><time>2026-04-28T16:32:35.532Z</time></trkpt><trkpt lat="45.6304302" lon="11.4249873"><ele>85.5</ele><time>2026-04-28T16:32:37.533Z</time></trkpt><trkpt lat="45.6305125" lon="11.4249757"><ele>85.66666666666667</ele><time>2026-04-28T16:32:39.533Z</time></trkpt><trkpt lat="45.6305953" lon="11.4249526"><ele>85.83333333333334</ele><time>2026-04-28T16:32:41.533Z</time></trkpt><trkpt lat="45.6306731" lon="11.424915"><ele>86.0</ele><time>2026-04-28T16:32:43.533Z</time></trkpt><trkpt lat="45.6307389" lon="11.4248789"><ele>86.0</ele><time>2026-04-28T16:32:45.533Z</time></trkpt><trkpt lat="45.6308173" lon="11.4248386"><ele>86.0</ele><time>2026-04-28T16:32:48.533Z</time></trkpt><trkpt lat="45.6309285" lon="11.4248423"><ele>86.0</ele><time>2026-04-28T16:32:52.533Z</time></trkpt><trkpt lat="45.6309866" lon="11.4249271"><ele>86.0</ele><time>2026-04-28T16:32:55.533Z</time></trkpt><trkpt lat="45.6310524" lon="11.4250354"><ele>86.0</ele><time>2026-04-28T16:32:58.533Z</time></trkpt><trkpt lat="45.6310934" lon="11.4251397"><ele>86.0</ele><time>2026-04-28T16:33:00.533Z</time></trkpt><trkpt lat="45.6311225" lon="11.425259"><ele>86.0</ele><time>2026-04-28T16:33:02.534Z</time></trkpt><trkpt lat="45.6311476" lon="11.4253932"><ele>86.0</ele><time>2026-04-28T16:33:04.533Z</time></trkpt><trkpt lat="45.6311808" lon="11.4255096"><ele>86.0</ele><time>2026-04-28T16:33:06.533Z</time></trkpt><trkpt lat="45.6312332" lon="11.4255813"><ele>86.0</ele><time>2026-04-28T16:33:08.534Z</time></trkpt><trkpt lat="45.6313072" lon="11.4255943"><ele>86.0</ele><time>2026-04-28T16:33:10.533Z</time></trkpt><trkpt lat="45.6313807" lon="11.4255488"><ele>86.0</ele><time>2026-04-28T16:33:12.534Z</time></trkpt><trkpt lat="45.6314393" lon="11.4254925"><ele>86.0</ele><time>2026-04-28T16:33:14.534Z</time></trkpt><trkpt lat="45.6314939" lon="11.4254442"><ele>86.0</ele><time>2026-04-28T16:33:16.534Z</time></trkpt><trkpt lat="45.631554" lon="11.4253891"><ele>86.0</ele><time>2026-04-28T16:33:19.533Z</time></trkpt><trkpt lat="45.6316284" lon="11.425293"><ele>86.0</ele><time>2026-04-28T16:33:23.534Z</time></trkpt><trkpt lat="45.6317019" lon="11.4252258"><ele>86.0</ele><time>2026-04-28T16:33:25.533Z</time></trkpt><trkpt lat="45.6317802" lon="11.4251579"><ele>86.0</ele><time>2026-04-28T16:33:27.533Z</time></trkpt><trkpt lat="45.6318445" lon="11.4251052"><ele>86.0</ele><time>2026-04-28T16:33:29.533Z</time></trkpt><trkpt lat="45.6319293" lon="11.4250475"><ele>86.0</ele><time>2026-04-28T16:33:31.534Z</time></trkpt><trkpt lat="45.6320268" lon="11.4249773"><ele>86.0</ele><time>2026-04-28T16:33:33.534Z</time></trkpt><trkpt lat="45.632128" lon="11.4248993"><ele>86.0</ele><time>2026-04-28T16:33:35.532Z</time></trkpt><trkpt lat="45.6321866" lon="11.4248509"><ele>86.6</ele><time>2026-04-28T16:33:36.533Z</time></trkpt><trkpt lat="45.6322472" lon="11.424803"><ele>87.19999999999999</ele><time>2026-04-28T16:33:37.533Z</time></trkpt><trkpt lat="45.6323154" lon="11.424765"><ele>87.80000000000001</ele><time>2026-04-28T16:33:38.533Z</time></trkpt><trkpt lat="45.6323824" lon="11.4247288"><ele>88.4</ele><time>2026-04-28T16:33:39.533Z</time></trkpt><trkpt lat="45.6325953" lon="11.4246424"><ele>89.0</ele><time>2026-04-28T16:33:40.533Z</time></trkpt><trkpt lat="45.6326691" lon="11.4245782"><ele>89.0</ele><time>2026-04-28T16:33:42.533Z</time></trkpt><trkpt lat="45.6327332" lon="11.4245296"><ele>89.0</ele><time>2026-04-28T16:33:44.533Z</time></trkpt><trkpt lat="45.6328196" lon="11.4245071"><ele>89.0</ele><time>2026-04-28T16:33:48.534Z</time></trkpt><trkpt lat="45.6328926" lon="11.4245757"><ele>89.0</ele><time>2026-04-28T16:33:51.533Z</time></trkpt><trkpt lat="45.6329609" lon="11.4246255"><ele>89.0</ele><time>2026-04-28T16:33:54.533Z</time></trkpt><trkpt lat="45.6330259" lon="11.424617"><ele>89.0</ele><time>2026-04-28T16:33:56.533Z</time></trkpt><trkpt lat="45.6330979" lon="11.4245976"><ele>89.16666666666667</ele><time>2026-04-28T16:33:58.533Z</time></trkpt><trkpt lat="45.6331697" lon="11.4245658"><ele>89.33333333333334</ele><time>2026-04-28T16:34:00.534Z</time></trkpt><trkpt lat="45.6332364" lon="11.4245238"><ele>89.5</ele><time>2026-04-28T16:34:02.534Z</time></trkpt><trkpt lat="45.6333006" lon="11.4244805"><ele>89.66666666666667</ele><time>2026-04-28T16:34:04.533Z</time></trkpt><trkpt lat="45.6333654" lon="11.424435"><ele>89.83333333333333</ele><time>2026-04-28T16:34:06.534Z</time></trkpt><trkpt lat="45.633443" lon="11.4243732"><ele>90.0</ele><time>2026-04-28T16:34:08.533Z</time></trkpt><trkpt lat="45.6335111" lon="11.4242863"><ele>90.0</ele><time>2026-04-28T16:34:10.532Z</time></trkpt><trkpt lat="45.6335455" lon="11.4241752"><ele>90.0</ele><time>2026-04-28T16:34:12.534Z</time></trkpt><trkpt lat="45.6335479" lon="11.4240505"><ele>90.0</ele><time>2026-04-28T16:34:15.533Z</time></trkpt><trkpt lat="45.6335851" lon="11.4239752"><ele>90.0</ele><time>2026-04-28T16:34:36.534Z</time></trkpt><trkpt lat="45.633583" lon="11.4238734"><ele>90.0</ele><time>2026-04-28T16:36:30.534Z</time></trkpt><trkpt lat="45.6335812" lon="11.4237675"><ele>90.0</ele><time>2026-04-28T16:36:33.533Z</time></trkpt><trkpt lat="45.6335524" lon="11.4236632"><ele>90.42857142857143</ele><time>2026-04-28T16:36:38.533Z</time></trkpt><trkpt lat="45.6335072" lon="11.4235862"><ele>90.85714285714286</ele><time>2026-04-28T16:36:41.534Z</time></trkpt><trkpt lat="45.63347" lon="11.4234901"><ele>91.28571428571429</ele><time>2026-04-28T16:36:44.534Z</time></trkpt><trkpt lat="45.6334358" lon="11.4234103"><ele>91.71428571428572</ele><time>2026-04-28T16:36:46.533Z</time></trkpt><trkpt lat="45.6333778" lon="11.4233227"><ele>92.14285714285714</ele><time>2026-04-28T16:36:49.533Z</time></trkpt><trkpt lat="45.6333631" lon="11.4232319"><ele>92.57142857142858</ele><time>2026-04-28T16:36:53.533Z</time></trkpt><trkpt lat="45.6333921" lon="11.4231296"><ele>93.0</ele><time>2026-04-28T16:36:58.534Z</time></trkpt><trkpt lat="45.6333908" lon="11.4230253"><ele>93.42857142857143</ele><time>2026-04-28T16:37:02.533Z</time></trkpt><trkpt lat="45.6333871" lon="11.4229317"><ele>93.85714285714286</ele><time>2026-04-28T16:37:06.533Z</time></trkpt><trkpt lat="45.6333962" lon="11.4228282"><ele>94.28571428571428</ele><time>2026-04-28T16:37:12.533Z</time></trkpt><trkpt lat="45.6333837" lon="11.4227296"><ele>94.71428571428572</ele><time>2026-04-28T16:37:18.533Z</time></trkpt><trkpt lat="45.6333913" lon="11.4226232"><ele>95.14285714285714</ele><time>2026-04-28T16:37:23.534Z</time></trkpt><trkpt lat="45.6333905" lon="11.4225271"><ele>95.57142857142857</ele><time>2026-04-28T16:37:28.533Z</time></trkpt><trkpt lat="45.6333833" lon="11.422418"><ele>96.0</ele><time>2026-04-28T16:37:33.534Z</time></trkpt><trkpt lat="45.6333879" lon="11.4223266"><ele>95.99999999999999</ele><time>2026-04-28T16:37:37.534Z</time></trkpt><trkpt lat="45.6333935" lon="11.42222"><ele>96.0</ele><time>2026-04-28T16:37:42.533Z</time></trkpt><trkpt lat="45.6333854" lon="11.4221202"><ele>96.0</ele><time>2026-04-28T16:37:48.533Z</time></trkpt><trkpt lat="45.633353" lon="11.4220322"><ele>96.0</ele><time>2026-04-28T16:37:53.532Z</time></trkpt><trkpt lat="45.6333477" lon="11.4219318"><ele>96.0</ele><time>2026-04-28T16:37:59.532Z</time></trkpt><trkpt lat="45.6333435" lon="11.421833"><ele>95.99999999999999</ele><time>2026-04-28T16:38:04.533Z</time></trkpt><trkpt lat="45.63336" lon="11.4217458"><ele>96.0</ele><time>2026-04-28T16:38:08.532Z</time></trkpt><trkpt lat="45.6333742" lon="11.4216402"><ele>96.99999999999999</ele><time>2026-04-28T16:38:14.532Z</time></trkpt><trkpt lat="45.6333873" lon="11.4215345"><ele>98.0</ele><time>2026-04-28T16:38:21.532Z</time></trkpt><trkpt lat="45.6333839" lon="11.4214317"><ele>99.0</ele><time>2026-04-28T16:38:26.533Z</time></trkpt><trkpt lat="45.6333829" lon="11.4213416"><ele>100.0</ele><time>2026-04-28T16:38:31.532Z</time></trkpt><trkpt lat="45.6333594" lon="11.4212375"><ele>101.0</ele><time>2026-04-28T16:38:36.532Z</time></trkpt><trkpt lat="45.633384" lon="11.4211394"><ele>101.99999999999999</ele><time>2026-04-28T16:38:42.533Z</time></trkpt><trkpt lat="45.6334004" lon="11.4210468"><ele>103.0</ele><time>2026-04-28T16:38:49.533Z</time></trkpt><trkpt lat="45.6334063" lon="11.420944"><ele>103.99999999999999</ele><time>2026-04-28T16:38:57.532Z</time></trkpt><trkpt lat="45.6334381" lon="11.4208606"><ele>105.0</ele><time>2026-04-28T16:39:02.532Z</time></trkpt><trkpt lat="45.6334699" lon="11.4207783"><ele>106.0</ele><time>2026-04-28T16:39:06.532Z</time></trkpt><trkpt lat="45.633463" lon="11.4206855"><ele>107.0</ele><time>2026-04-28T16:39:11.532Z</time></trkpt><trkpt lat="45.6334566" lon="11.4205708"><ele>108.0</ele><time>2026-04-28T16:39:15.532Z</time></trkpt><trkpt lat="45.6334827" lon="11.420486"><ele>108.99999999999999</ele><time>2026-04-28T16:39:19.533Z</time></trkpt><trkpt lat="45.6335111" lon="11.4203953"><ele>110.0</ele><time>2026-04-28T16:39:23.533Z</time></trkpt><trkpt lat="45.6335297" lon="11.420304"><ele>109.99999999999999</ele><time>2026-04-28T16:39:26.532Z</time></trkpt><trkpt lat="45.6335407" lon="11.4201959"><ele>110.0</ele><time>2026-04-28T16:39:30.533Z</time></trkpt><trkpt lat="45.6335561" lon="11.4200823"><ele>110.0</ele><time>2026-04-28T16:39:34.532Z</time></trkpt><trkpt lat="45.6335514" lon="11.4199718"><ele>110.0</ele><time>2026-04-28T16:39:38.532Z</time></trkpt><trkpt lat="45.6335657" lon="11.4198682"><ele>109.99999999999999</ele><time>2026-04-28T16:39:41.533Z</time></trkpt><trkpt lat="45.633576" lon="11.4197748"><ele>110.0</ele><time>2026-04-28T16:39:44.532Z</time></trkpt><trkpt lat="45.6335813" lon="11.4196627"><ele>110.33333333333333</ele><time>2026-04-28T16:39:48.532Z</time></trkpt><trkpt lat="45.6336065" lon="11.419552"><ele>110.66666666666666</ele><time>2026-04-28T16:39:52.532Z</time></trkpt><trkpt lat="45.6336162" lon="11.4194351"><ele>111.0</ele><time>2026-04-28T16:39:56.533Z</time></trkpt><trkpt lat="45.6336154" lon="11.4193322"><ele>111.33333333333334</ele><time>2026-04-28T16:39:59.532Z</time></trkpt><trkpt lat="45.6336127" lon="11.4192247"><ele>111.66666666666667</ele><time>2026-04-28T16:40:02.532Z</time></trkpt><trkpt lat="45.633608" lon="11.4191179"><ele>112.0</ele><time>2026-04-28T16:40:06.532Z</time></trkpt><trkpt lat="45.6336226" lon="11.4190125"><ele>113.33333333333334</ele><time>2026-04-28T16:40:10.532Z</time></trkpt><trkpt lat="45.6336463" lon="11.4189218"><ele>114.66666666666667</ele><time>2026-04-28T16:40:14.532Z</time></trkpt><trkpt lat="45.6336636" lon="11.418828"><ele>116.0</ele><time>2026-04-28T16:40:18.532Z</time></trkpt><trkpt lat="45.6336707" lon="11.4187349"><ele>117.33333333333334</ele><time>2026-04-28T16:40:21.532Z</time></trkpt><trkpt lat="45.6337171" lon="11.4186607"><ele>118.66666666666667</ele><time>2026-04-28T16:40:25.533Z</time></trkpt><trkpt lat="45.633777" lon="11.4186253"><ele>120.0</ele><time>2026-04-28T16:40:29.532Z</time></trkpt><trkpt lat="45.6339335" lon="11.4186276"><ele>120.0</ele><time>2026-04-28T16:40:37.532Z</time></trkpt><trkpt lat="45.6340105" lon="11.4186528"><ele>120.0</ele><time>2026-04-28T16:40:39.532Z</time></trkpt><trkpt lat="45.6340785" lon="11.4186944"><ele>120.0</ele><time>2026-04-28T16:40:41.533Z</time></trkpt><trkpt lat="45.6341232" lon="11.418768"><ele>120.0</ele><time>2026-04-28T16:40:46.532Z</time></trkpt><trkpt lat="45.6341961" lon="11.4188294"><ele>120.0</ele><time>2026-04-28T16:40:49.532Z</time></trkpt><trkpt lat="45.6342786" lon="11.4188431"><ele>120.0</ele><time>2026-04-28T16:40:52.532Z</time></trkpt><trkpt lat="45.6343581" lon="11.4188368"><ele>120.0</ele><time>2026-04-28T16:40:55.532Z</time></trkpt><trkpt lat="45.6344248" lon="11.4188307"><ele>120.0</ele><time>2026-04-28T16:40:58.532Z</time></trkpt><trkpt lat="45.6344909" lon="11.4187649"><ele>120.0</ele><time>2026-04-28T16:41:01.532Z</time></trkpt><trkpt lat="45.6345385" lon="11.4186617"><ele>120.0</ele><time>2026-04-28T16:41:04.532Z</time></trkpt><trkpt lat="45.6345637" lon="11.4185675"><ele>120.0</ele><time>2026-04-28T16:41:07.532Z</time></trkpt><trkpt lat="45.6345998" lon="11.4184874"><ele>120.0</ele><time>2026-04-28T16:41:11.533Z</time></trkpt><trkpt lat="45.6346425" lon="11.4184124"><ele>120.0</ele><time>2026-04-28T16:41:16.532Z</time></trkpt><trkpt lat="45.6346696" lon="11.4183296"><ele>121.14285714285714</ele><time>2026-04-28T16:41:21.532Z</time></trkpt><trkpt lat="45.6346887" lon="11.4182427"><ele>122.28571428571428</ele><time>2026-04-28T16:41:25.533Z</time></trkpt><trkpt lat="45.6347203" lon="11.4181526"><ele>123.42857142857142</ele><time>2026-04-28T16:41:30.532Z</time></trkpt><trkpt lat="45.63476" lon="11.4180525"><ele>124.57142857142857</ele><time>2026-04-28T16:41:35.532Z</time></trkpt><trkpt lat="45.6347802" lon="11.4179622"><ele>125.7142857142857</ele><time>2026-04-28T16:41:38.532Z</time></trkpt><trkpt lat="45.6347998" lon="11.4178739"><ele>126.85714285714285</ele><time>2026-04-28T16:41:41.533Z</time></trkpt><trkpt lat="45.6348333" lon="11.4177715"><ele>128.0</ele><time>2026-04-28T16:41:46.532Z</time></trkpt><trkpt lat="45.6348375" lon="11.4176668"><ele>128.85714285714286</ele><time>2026-04-28T16:41:50.532Z</time></trkpt><trkpt lat="45.6348208" lon="11.4175574"><ele>129.7142857142857</ele><time>2026-04-28T16:41:54.533Z</time></trkpt><trkpt lat="45.6347624" lon="11.4174923"><ele>130.57142857142856</ele><time>2026-04-28T16:41:58.532Z</time></trkpt><trkpt lat="45.6346955" lon="11.4174415"><ele>131.42857142857142</ele><time>2026-04-28T16:42:02.532Z</time></trkpt><trkpt lat="45.6346306" lon="11.4174111"><ele>132.28571428571428</ele><time>2026-04-28T16:42:06.532Z</time></trkpt><trkpt lat="45.6345578" lon="11.4173772"><ele>133.14285714285714</ele><time>2026-04-28T16:42:10.532Z</time></trkpt><trkpt lat="45.6344974" lon="11.4173371"><ele>134.0</ele><time>2026-04-28T16:42:14.532Z</time></trkpt><trkpt lat="45.6344447" lon="11.4172868"><ele>134.0</ele><time>2026-04-28T16:42:18.533Z</time></trkpt><trkpt lat="45.6343953" lon="11.4172213"><ele>134.0</ele><time>2026-04-28T16:42:23.532Z</time></trkpt><trkpt lat="45.6343692" lon="11.4171365"><ele>134.0</ele><time>2026-04-28T16:42:29.532Z</time></trkpt><trkpt lat="45.6343399" lon="11.4170389"><ele>134.0</ele><time>2026-04-28T16:42:36.532Z</time></trkpt><trkpt lat="45.6343319" lon="11.416946"><ele>134.0</ele><time>2026-04-28T16:42:40.532Z</time></trkpt><trkpt lat="45.634306" lon="11.4168563"><ele>134.0</ele><time>2026-04-28T16:42:45.532Z</time></trkpt><trkpt lat="45.6343" lon="11.4167538"><ele>134.0</ele><time>2026-04-28T16:42:50.533Z</time></trkpt><trkpt lat="45.6342823" lon="11.4166643"><ele>135.42857142857144</ele><time>2026-04-28T16:42:55.531Z</time></trkpt><trkpt lat="45.6342657" lon="11.4165718"><ele>136.85714285714286</ele><time>2026-04-28T16:43:02.532Z</time></trkpt><trkpt lat="45.6342778" lon="11.4164746"><ele>138.28571428571428</ele><time>2026-04-28T16:43:06.532Z</time></trkpt><trkpt lat="45.6342907" lon="11.4163803"><ele>139.71428571428572</ele><time>2026-04-28T16:43:10.533Z</time></trkpt><trkpt lat="45.6342935" lon="11.4162828"><ele>141.14285714285714</ele><time>2026-04-28T16:43:14.532Z</time></trkpt><trkpt lat="45.6343298" lon="11.4161872"><ele>142.57142857142858</ele><time>2026-04-28T16:43:19.532Z</time></trkpt><trkpt lat="45.6343591" lon="11.4161008"><ele>144.0</ele><time>2026-04-28T16:43:24.532Z</time></trkpt><trkpt lat="45.6343911" lon="11.4160115"><ele>145.2857142857143</ele><time>2026-04-28T16:43:28.533Z</time></trkpt><trkpt lat="45.6343867" lon="11.4158877"><ele>146.57142857142858</ele><time>2026-04-28T16:43:33.533Z</time></trkpt><trkpt lat="45.6343907" lon="11.4157876"><ele>147.85714285714286</ele><time>2026-04-28T16:43:35.532Z</time></trkpt><trkpt lat="45.6344191" lon="11.4156988"><ele>149.14285714285717</ele><time>2026-04-28T16:43:37.531Z</time></trkpt><trkpt lat="45.6344452" lon="11.4156117"><ele>150.42857142857144</ele><time>2026-04-28T16:43:41.532Z</time></trkpt><trkpt lat="45.6344033" lon="11.4155359"><ele>151.71428571428572</ele><time>2026-04-28T16:43:44.533Z</time></trkpt><trkpt lat="45.6343531" lon="11.4154761"><ele>153.0</ele><time>2026-04-28T16:43:49.532Z</time></trkpt><trkpt lat="45.6342852" lon="11.415437"><ele>153.0</ele><time>2026-04-28T16:43:55.532Z</time></trkpt><trkpt lat="45.6343083" lon="11.415336"><ele>153.0</ele><time>2026-04-28T16:44:11.532Z</time></trkpt></trkseg></trk></gpx>